
Distance (Route):
Temperature : -2.3°C
Humidity : 62.3%
Pressure : 0hPa| Receiver | Date | Latitude | Longitude | Direction | Speed | Altitude | Climb | Temperature | Humidity | Pressure | Voltage | Killtimer | Uptime | BKT | XDATA |
|---|---|---|---|---|---|---|---|---|---|---|---|---|---|---|---|
| LZ4TU-5 | 2026-08-31 18:59:54 | 44.74101 | 21.13229 | 103° | 40km/h | 4517m | -16.9m/s | -2.3°C | 62.3% | 0hPa | 5.4V | 00:00:00 | 00:00:00 | 00:00:00 | |
| LZ4TU-5 | 2026-08-31 18:59:49 | 44.74113 | 21.13157 | 105° | 42km/h | 4605m | -17.0m/s | -2.6°C | 47.0% | 0hPa | 5.4V | 00:00:00 | 00:00:00 | 00:00:00 | |
| LZ4TU-5 | 2026-08-31 18:52:09 | 44.74917 | 21.02370 | 91° | 49km/h | 14798m | -30.1m/s | -60.8°C | 3.4% | 0hPa | 5.4V | 00:00:00 | 00:00:00 | 00:00:00 | |
| LZ4TU-5 | 2026-08-31 18:52:04 | 44.74914 | 21.02293 | 81° | 38km/h | 14952m | -30.6m/s | -60.5°C | 2.8% | 0hPa | 5.4V | 00:00:00 | 00:00:00 | 00:00:00 | |
| LZ4TU-5 | 2026-08-31 18:50:49 | 44.74743 | 21.01210 | 67° | 29km/h | 17509m | -38.7m/s | -57.4°C | 0.9% | 0hPa | 5.4V | 00:00:00 | 00:00:00 | 00:00:00 | |
| LZ4TU-5 | 2026-08-31 18:50:45 | 44.74730 | 21.01175 | 60° | 24km/h | 17660m | -38.9m/s | -57.4°C | 0.7% | 0hPa | 5.4V | 00:00:00 | 00:00:00 | 00:00:00 | |
| LZ4TU-5 | 2026-08-31 18:50:40 | 44.74709 | 21.01140 | 42° | 18km/h | 17838m | -39.4m/s | -57.8°C | 0.8% | 0hPa | 5.4V | 00:00:00 | 00:00:00 | 00:00:00 | |
| LZ4TU-5 | 2026-08-31 18:49:24 | 44.74607 | 21.00850 | 42° | 9km/h | 21260m | -53.0m/s | -55.3°C | 0.9% | 0hPa | 5.4V | 00:00:00 | 00:00:00 | 00:00:00 | |
| LZ4TU-5 | 2026-08-31 18:49:20 | 44.74601 | 21.00838 | 66° | 11km/h | 21475m | -53.8m/s | -54.7°C | 0.9% | 0hPa | 5.4V | 00:00:00 | 00:00:00 | 00:00:00 | |
| LZ4TU-5 | 2026-08-31 18:49:15 | 44.74600 | 21.00824 | 0° | 0km/h | 21749m | -55.2m/s | -53.7°C | 0.8% | 0hPa | 5.4V | 00:00:00 | 00:00:00 | 00:00:00 | |
| LZ4TU-5 | 2026-08-31 18:47:51 | 44.74582 | 21.00960 | 92° | 9km/h | 27298m | -84.4m/s | -44.4°C | 1.8% | 0hPa | 5.4V | 00:00:00 | 00:00:00 | 00:00:00 | |
| LZ4TU-5 | 2026-08-31 18:47:46 | 44.74584 | 21.00949 | 119° | 7km/h | 27728m | -86.9m/s | -42.7°C | 0% | 0hPa | 5.4V | 00:00:00 | 00:00:00 | 00:00:00 | |
| LZ4TU-5 | 2026-08-31 18:46:31 | 44.74670 | 21.01132 | 243° | 27km/h | 32407m | 6.1m/s | -39.1°C | 0.7% | 0hPa | 5.4V | 00:00:00 | 00:00:00 | 00:00:00 | |
| LZ4TU-5 | 2026-08-31 18:45:19 | 44.74573 | 21.01337 | 222° | 9km/h | 31910m | 8.2m/s | -41.5°C | 0.9% | 0hPa | 5.4V | 00:00:00 | 00:00:00 | 00:00:00 | |
| LZ4TU-5 | 2026-08-31 18:45:16 | 44.74597 | 21.01367 | 237° | 33km/h | 31882m | 7.0m/s | -41.5°C | 0.9% | 0hPa | 5.4V | 00:00:00 | 00:00:00 | 00:00:00 | |
| OE3JTB-15 | 2026-08-31 18:44:07 | 44.74777 | 21.01523 | 144° | 26km/h | 31438m | 3.8m/s | -42.4°C | 0% | 0hPa | 5.4V | 00:00:00 | 00:00:00 | 00:00:00 | |
| LZ4TU-5 | 2026-08-31 18:44:02 | 44.74792 | 21.01524 | 306° | 22km/h | 31405m | 7.0m/s | -42.9°C | 1.2% | 0hPa | 5.4V | 00:00:00 | 00:00:00 | 00:00:00 | |
| LZ4TU-5 | 2026-08-31 18:43:57 | 44.74801 | 21.01530 | 140° | 35km/h | 31372m | 7.4m/s | -43.0°C | 1.2% | 0hPa | 5.4V | 00:00:00 | 00:00:00 | 00:00:00 | |
| OE3JTB-15 | 2026-08-31 18:43:30 | 44.74882 | 21.01475 | 152° | 27km/h | 31196m | 4.7m/s | -42.5°C | 0% | 0hPa | 5.4V | 00:00:00 | 00:00:00 | 00:00:00 | |
| OE3JTB-15 | 2026-08-31 18:42:58 | 44.74877 | 21.01547 | 236° | 31km/h | 30991m | 9.7m/s | -42.2°C | 0% | 0hPa | 5.5V | 00:00:00 | 00:00:00 | 00:00:00 | |
| LZ4TU-5 | 2026-08-31 18:42:42 | 44.74890 | 21.01667 | 220° | 26km/h | 30881m | 7.3m/s | -42.4°C | 1.1% | 0hPa | 5.5V | 00:00:00 | 00:00:00 | 00:00:00 | |
| LZ4TU-5 | 2026-08-31 18:42:37 | 44.74899 | 21.01669 | 250° | 4km/h | 30842m | 6.7m/s | -42.4°C | 1.1% | 0hPa | 5.5V | 00:00:00 | 00:00:00 | 00:00:00 | |
| LZ4TU-5 | 2026-08-31 18:41:21 | 44.75401 | 21.01797 | 149° | 27km/h | 30308m | 7.2m/s | -41.8°C | 0% | 0hPa | 5.5V | 00:00:00 | 00:00:00 | 00:00:00 | |
| LZ4TU-5 | 2026-08-31 18:41:16 | 44.75456 | 21.01758 | 179° | 51km/h | 30273m | 5.7m/s | -42.2°C | 0.9% | 0hPa | 5.5V | 00:00:00 | 00:00:00 | 00:00:00 | |
| OE3JTB-15 | 2026-08-31 18:40:59 | 44.75563 | 21.01744 | 223° | 26km/h | 30150m | 6.8m/s | -43.1°C | 0% | 0hPa | 5.5V | 00:00:00 | 00:00:00 | 00:00:00 | |
| OE3JTB-15 | 2026-08-31 18:40:30 | 44.75653 | 21.01535 | 112° | 16km/h | 29944m | 7.6m/s | -43.7°C | 0% | 0hPa | 5.5V | 00:00:00 | 00:00:00 | 00:00:00 | |
| LZ4TU-5 | 2026-08-31 18:39:59 | 44.75630 | 21.01370 | 136° | 5km/h | 29733m | 5.6m/s | -43.9°C | 1.2% | 0hPa | 5.5V | 00:00:00 | 00:00:00 | 00:00:00 | |
| LZ4TU-5 | 2026-08-31 18:38:40 | 44.75526 | 21.01151 | 299° | 13km/h | 29186m | 6.0m/s | -43.8°C | 1.2% | 0hPa | 5.5V | 00:00:00 | 00:00:00 | 00:00:00 | |
| OE3JTB-15 | 2026-08-31 18:38:01 | 44.75581 | 21.01062 | 25° | 20km/h | 28923m | 7.0m/s | -43.2°C | 0% | 0hPa | 5.5V | 00:00:00 | 00:00:00 | 00:00:00 | |
| OE3JTB-15 | 2026-08-31 18:37:32 | 44.75626 | 21.00893 | 118° | 22km/h | 28729m | 6.0m/s | -44.5°C | 0% | 0hPa | 5.5V | 00:00:00 | 00:00:00 | 00:00:00 | |
| LZ4TU-5 | 2026-08-31 18:37:26 | 44.75651 | 21.00849 | 110° | 33km/h | 28689m | 7.1m/s | -45.1°C | 1.2% | 0hPa | 5.5V | 00:00:00 | 00:00:00 | 00:00:00 | |
| LZ4TU-5 | 2026-08-31 18:37:21 | 44.75647 | 21.00808 | 61° | 24km/h | 28655m | 5.7m/s | -45.0°C | 1.1% | 0hPa | 5.5V | 00:00:00 | 00:00:00 | 00:00:00 | |
| LZ4TU-5 | 2026-08-31 18:36:07 | 44.75545 | 21.00513 | 97° | 16km/h | 28169m | 7.1m/s | -46.1°C | 1.1% | 0hPa | 5.5V | 00:00:00 | 00:00:00 | 00:00:00 | |
| OE3JTB-15 | 2026-08-31 18:36:04 | 44.75543 | 21.00492 | 59° | 18km/h | 28153m | 6.4m/s | -45.7°C | 0% | 0hPa | 5.5V | 00:00:00 | 00:00:00 | 00:00:00 | |
| LZ4TU-5 | 2026-08-31 18:36:02 | 44.75534 | 21.00486 | 10° | 29km/h | 28139m | 7.3m/s | -46.3°C | 1.1% | 0hPa | 5.5V | 00:00:00 | 00:00:00 | 00:00:00 | |
| OM5KV | 2026-08-31 18:35:56 | 44.75504 | 21.00480 | 75° | 7km/h | 28098m | 6.1m/s | -46.4°C | 1.2% | 0hPa | 5.5V | 00:00:00 | 00:00:00 | 00:00:00 | |
| OM5KV | 2026-08-31 18:35:50 | 44.75510 | 21.00447 | 0° | 0km/h | 28059m | 6.8m/s | -46.4°C | 1.1% | 0hPa | 5.5V | 00:00:00 | 00:00:00 | 00:00:00 | |
| OM5KV | 2026-08-31 18:35:45 | 44.75499 | 21.00456 | 0° | 0km/h | 28025m | 6.7m/s | -46.6°C | 1.2% | 0hPa | 5.5V | 00:00:00 | 00:00:00 | 00:00:00 | |
| OM5KV | 2026-08-31 18:35:40 | 44.75503 | 21.00443 | 110° | 13km/h | 27993m | 5.4m/s | -46.6°C | 1.1% | 0hPa | 5.5V | 00:00:00 | 00:00:00 | 00:00:00 | |
| OM5KV | 2026-08-31 18:35:34 | 44.75510 | 21.00446 | 346° | 9km/h | 27959m | 5.8m/s | -46.6°C | 1.1% | 0hPa | 5.5V | 00:00:00 | 00:00:00 | 00:00:00 | |
| OM5KV | 2026-08-31 18:35:29 | 44.75518 | 21.00418 | 157° | 26km/h | 27926m | 5.6m/s | -46.4°C | 1.1% | 0hPa | 5.5V | 00:00:00 | 00:00:00 | 00:00:00 | |
| OE3JTB-15 | 2026-08-31 18:35:16 | 44.75537 | 21.00406 | 150° | 22km/h | 27842m | 6.3m/s | -46.0°C | 0% | 0hPa | 5.5V | 00:00:00 | 00:00:00 | 00:00:00 | |
| LZ4TU-5 | 2026-08-31 18:34:48 | 44.75562 | 21.00320 | 147° | 7km/h | 27650m | 6.0m/s | -47.2°C | 1.1% | 0hPa | 5.5V | 00:00:00 | 00:00:00 | 00:00:00 | |
| LZ4TU-5 | 2026-08-31 18:34:43 | 44.75547 | 21.00274 | 71° | 37km/h | 27614m | 6.9m/s | -47.4°C | 1.1% | 0hPa | 5.5V | 00:00:00 | 00:00:00 | 00:00:00 | |
| OE3JTB-15 | 2026-08-31 18:34:39 | 44.75534 | 21.00242 | 35° | 29km/h | 27587m | 6.9m/s | -47.0°C | 0% | 0hPa | 5.5V | 00:00:00 | 00:00:00 | 00:00:00 | |
| OE3JTB-15 | 2026-08-31 18:34:10 | 44.75424 | 21.00079 | 24° | 26km/h | 27392m | 7.5m/s | -47.7°C | 0% | 0hPa | 5.5V | 00:00:00 | 00:00:00 | 00:00:00 | |
| OE3JTB-15 | 2026-08-31 18:33:41 | 44.75300 | 20.99972 | 209° | 20km/h | 27191m | 8.0m/s | -47.9°C | 0% | 0hPa | 5.5V | 00:00:00 | 00:00:00 | 00:00:00 | |
| LZ4TU-5 | 2026-08-31 18:33:28 | 44.75283 | 20.99969 | 183° | 16km/h | 27097m | 7.3m/s | -48.5°C | 1.3% | 0hPa | 5.5V | 00:00:00 | 00:00:00 | 00:00:00 | |
| LZ4TU-5 | 2026-08-31 18:33:24 | 44.75288 | 20.99959 | 25° | 9km/h | 27069m | 6.2m/s | -48.6°C | 1.3% | 0hPa | 5.5V | 00:00:00 | 00:00:00 | 00:00:00 | |
| OE3JTB-15 | 2026-08-31 18:33:12 | 44.75279 | 20.99984 | 355° | 18km/h | 26989m | 5.5m/s | -48.4°C | 0% | 0hPa | 5.5V | 00:00:00 | 00:00:00 | 00:00:00 | |
| OE3JTB-15 | 2026-08-31 18:32:40 | 44.75288 | 21.00016 | 180° | 15km/h | 26775m | 5.5m/s | -48.1°C | 0% | 0hPa | 5.5V | 00:00:00 | 00:00:00 | 00:00:00 | |
| LZ4TU-5 | 2026-08-31 18:32:10 | 44.75217 | 20.99941 | 31° | 15km/h | 26575m | 5.5m/s | -48.0°C | 1.4% | 0hPa | 5.5V | 00:00:00 | 00:00:00 | 00:00:00 | |
| LZ4TU-5 | 2026-08-31 18:32:06 | 44.75208 | 20.99939 | 16° | 9km/h | 26548m | 6.1m/s | -47.9°C | 1.3% | 0hPa | 5.5V | 00:00:00 | 00:00:00 | 00:00:00 | |
| OE3JTB-15 | 2026-08-31 18:32:01 | 44.75195 | 20.99933 | 353° | 18km/h | 26516m | 6.7m/s | -47.1°C | 0% | 0hPa | 5.5V | 00:00:00 | 00:00:00 | 00:00:00 | |
| OE3JTB-15 | 2026-08-31 18:31:32 | 44.75057 | 20.99917 | 3° | 15km/h | 26322m | 5.7m/s | -48.0°C | 0% | 0hPa | 5.5V | 00:00:00 | 00:00:00 | 00:00:00 | |
| OE3JTB-15 | 2026-08-31 18:31:02 | 44.74993 | 20.99897 | 228° | 13km/h | 26122m | 6.8m/s | -48.2°C | 0% | 0hPa | 5.5V | 00:00:00 | 00:00:00 | 00:00:00 | |
| LZ4TU-5 | 2026-08-31 18:30:43 | 44.74971 | 20.99951 | 270° | 24km/h | 25999m | 7.1m/s | -49.1°C | 0% | 0hPa | 5.6V | 00:00:00 | 00:00:00 | 00:00:00 | |
| LZ4TU-5 | 2026-08-31 18:30:39 | 44.74973 | 20.99990 | 285° | 22km/h | 25972m | 5.9m/s | -49.1°C | 1.2% | 0hPa | 5.6V | 00:00:00 | 00:00:00 | 00:00:00 | |
| OE3JTB-15 | 2026-08-31 18:30:07 | 44.74971 | 21.00130 | 191° | 26km/h | 25756m | 6.8m/s | -50.2°C | 0% | 0hPa | 5.6V | 00:00:00 | 00:00:00 | 00:00:00 | |
| OE3JTB-15 | 2026-08-31 18:29:36 | 44.74898 | 21.00326 | 273° | 22km/h | 25553m | 6.8m/s | -50.5°C | 0% | 0hPa | 5.6V | 00:00:00 | 00:00:00 | 00:00:00 | |
| LZ4TU-5 | 2026-08-31 18:29:17 | 44.74901 | 21.00480 | 268° | 22km/h | 25423m | 6.0m/s | -50.7°C | 1.6% | 0hPa | 5.6V | 00:00:00 | 00:00:00 | 00:00:00 | |
| LZ4TU-5 | 2026-08-31 18:29:12 | 44.74925 | 21.00525 | 236° | 27km/h | 25388m | 4.7m/s | -50.7°C | 1.6% | 0hPa | 5.6V | 00:00:00 | 00:00:00 | 00:00:00 | |
| OM5KV | 2026-08-31 18:28:58 | 44.74980 | 21.00617 | 257° | 16km/h | 25293m | 5.6m/s | -50.3°C | 1.6% | 0hPa | 5.6V | 00:00:00 | 00:00:00 | 00:00:00 | |
| OM5KV | 2026-08-31 18:28:53 | 44.74998 | 21.00641 | 217° | 26km/h | 25259m | 9.3m/s | -50.3°C | 1.6% | 0hPa | 5.6V | 00:00:00 | 00:00:00 | 00:00:00 | |
| OE3JTB-15 | 2026-08-31 18:28:47 | 44.75023 | 21.00665 | 190° | 16km/h | 25221m | 8.2m/s | -49.5°C | 0% | 0hPa | 5.6V | 00:00:00 | 00:00:00 | 00:00:00 | |
| OM5KV | 2026-08-31 18:28:36 | 44.75059 | 21.00690 | 112° | 7km/h | 25149m | 6.3m/s | -49.8°C | 1.5% | 0hPa | 5.6V | 00:00:00 | 00:00:00 | 00:00:00 | |
| OM5KV | 2026-08-31 18:28:31 | 44.75073 | 21.00692 | 207° | 15km/h | 25116m | 6.1m/s | -49.8°C | 1.5% | 0hPa | 5.6V | 00:00:00 | 00:00:00 | 00:00:00 | |
| OM5KV | 2026-08-31 18:28:23 | 44.75097 | 21.00690 | 121° | 9km/h | 25065m | 6.4m/s | -50.0°C | 1.5% | 0hPa | 5.6V | 00:00:00 | 00:00:00 | 00:00:00 | |
| OE3JTB-15 | 2026-08-31 18:28:17 | 44.75100 | 21.00705 | 198° | 11km/h | 25029m | 3.4m/s | -49.3°C | 0% | 0hPa | 5.6V | 00:00:00 | 00:00:00 | 00:00:00 | |
| OM5KV | 2026-08-31 18:28:08 | 44.75095 | 21.00693 | 254° | 11km/h | 24972m | 6.9m/s | -50.0°C | 1.4% | 0hPa | 5.6V | 00:00:00 | 00:00:00 | 00:00:00 | |
| OM5KV | 2026-08-31 18:28:02 | 44.75096 | 21.00695 | 30° | 16km/h | 24931m | 9.3m/s | -50.3°C | 1.5% | 0hPa | 5.6V | 00:00:00 | 00:00:00 | 00:00:00 | |
| LZ4TU-5 | 2026-08-31 18:27:58 | 44.75082 | 21.00689 | 335° | 13km/h | 24907m | 5.1m/s | -50.4°C | 1.6% | 0hPa | 5.6V | 00:00:00 | 00:00:00 | 00:00:00 | |
| LZ4TU-5 | 2026-08-31 18:27:53 | 44.75082 | 21.00695 | 352° | 2km/h | 24872m | 7.9m/s | -50.5°C | 1.6% | 0hPa | 5.6V | 00:00:00 | 00:00:00 | 00:00:00 | |
| OE3JTB-15 | 2026-08-31 18:27:45 | 44.75056 | 21.00705 | 282° | 18km/h | 24820m | 7.0m/s | -50.0°C | 0% | 0hPa | 5.6V | 00:00:00 | 00:00:00 | 00:00:00 | |
| OM5KV | 2026-08-31 18:27:28 | 44.75008 | 21.00759 | 4° | 13km/h | 24713m | 6.5m/s | -50.6°C | 1.5% | 0hPa | 5.6V | 00:00:00 | 00:00:00 | 00:00:00 | |
| OM5KV | 2026-08-31 18:27:17 | 44.74992 | 21.00820 | 315° | 18km/h | 24646m | 5.9m/s | -50.7°C | 1.4% | 0hPa | 5.6V | 00:00:00 | 00:00:00 | 00:00:00 | |
| OE3JTB-15 | 2026-08-31 18:27:15 | 44.74985 | 21.00825 | 352° | 26km/h | 24631m | 5.9m/s | -50.3°C | 0% | 0hPa | 5.6V | 00:00:00 | 00:00:00 | 00:00:00 | |
| OM5KV | 2026-08-31 18:27:10 | 44.74974 | 21.00843 | 286° | 26km/h | 24602m | 6.4m/s | -51.2°C | 1.5% | 0hPa | 5.6V | 00:00:00 | 00:00:00 | 00:00:00 | |
| OM5KV | 2026-08-31 18:26:52 | 44.75018 | 21.00967 | 225° | 20km/h | 24493m | 7.2m/s | -51.7°C | 1.6% | 0hPa | 5.6V | 00:00:00 | 00:00:00 | 00:00:00 | |
| OM5KV | 2026-08-31 18:26:44 | 44.75065 | 21.01032 | 234° | 26km/h | 24443m | 5.9m/s | -51.8°C | 1.5% | 0hPa | 5.6V | 00:00:00 | 00:00:00 | 00:00:00 | |
| OM5KV | 2026-08-31 18:26:38 | 44.75090 | 21.01061 | 213° | 29km/h | 24408m | 6.3m/s | -51.8°C | 1.5% | 0hPa | 5.6V | 00:00:00 | 00:00:00 | 00:00:00 | |
| LZ4TU-5 | 2026-08-31 18:26:37 | 44.75095 | 21.01067 | 219° | 27km/h | 24401m | 6.3m/s | -51.8°C | 1.5% | 0hPa | 5.6V | 00:00:00 | 00:00:00 | 00:00:00 | |
| LZ4TU-5 | 2026-08-31 18:26:32 | 44.75118 | 21.01097 | 235° | 13km/h | 24370m | 8.0m/s | -51.7°C | 1.4% | 0hPa | 5.6V | 00:00:00 | 00:00:00 | 00:00:00 | |
| OM5KV | 2026-08-31 18:26:27 | 44.75120 | 21.01119 | 243° | 16km/h | 24337m | 6.7m/s | -51.8°C | 1.4% | 0hPa | 5.6V | 00:00:00 | 00:00:00 | 00:00:00 | |
| OE3JTB-15 | 2026-08-31 18:26:10 | 44.75155 | 21.01171 | 192° | 11km/h | 24229m | 6.6m/s | -51.9°C | 0% | 0hPa | 5.6V | 00:00:00 | 00:00:00 | 00:00:00 | |
| OM5KV | 2026-08-31 18:26:06 | 44.75163 | 21.01175 | 0° | 0km/h | 24204m | 6.0m/s | -52.9°C | 1.5% | 0hPa | 5.6V | 00:00:00 | 00:00:00 | 00:00:00 | |
| OE3JTB-15 | 2026-08-31 18:25:41 | 44.75197 | 21.01220 | 198° | 18km/h | 24050m | 6.7m/s | -53.0°C | 0% | 0hPa | 5.6V | 00:00:00 | 00:00:00 | 00:00:00 | |
| OM5KV | 2026-08-31 18:25:28 | 44.75256 | 21.01220 | 193° | 24km/h | 23968m | 7.1m/s | -53.7°C | 1.7% | 0hPa | 5.6V | 00:00:00 | 00:00:00 | 00:00:00 | |
| OM5KV | 2026-08-31 18:25:22 | 44.75278 | 21.01202 | 159° | 9km/h | 23931m | 5.3m/s | -53.5°C | 1.7% | 0hPa | 5.6V | 00:00:00 | 00:00:00 | 00:00:00 | |
| LZ4TU-5 | 2026-08-31 18:25:17 | 44.75281 | 21.01206 | 235° | 15km/h | 23901m | 3.9m/s | -53.5°C | 1.7% | 0hPa | 5.6V | 00:00:00 | 00:00:00 | 00:00:00 | |
| OE3JTB-15 | 2026-08-31 18:25:12 | 44.75307 | 21.01201 | 154° | 18km/h | 23869m | 5.4m/s | -52.9°C | 0% | 0hPa | 5.6V | 00:00:00 | 00:00:00 | 00:00:00 | |
| OM5KV | 2026-08-31 18:25:09 | 44.75312 | 21.01198 | 310° | 7km/h | 23851m | 7.4m/s | -53.5°C | 1.6% | 0hPa | 5.6V | 00:00:00 | 00:00:00 | 00:00:00 | |
| OM5KV | 2026-08-31 18:25:03 | 44.75317 | 21.01230 | 207° | 26km/h | 23813m | 6.3m/s | -53.7°C | 1.6% | 0hPa | 5.6V | 00:00:00 | 00:00:00 | 00:00:00 | |
| OM5KV | 2026-08-31 18:24:56 | 44.75330 | 21.01230 | 258° | 11km/h | 23770m | 6.9m/s | -54.2°C | 1.8% | 0hPa | 5.6V | 00:00:00 | 00:00:00 | 00:00:00 | |
| OM5KV | 2026-08-31 18:24:47 | 44.75347 | 21.01264 | 168° | 16km/h | 23713m | 4.7m/s | -54.5°C | 1.9% | 0hPa | 5.6V | 00:00:00 | 00:00:00 | 00:00:00 | |
| OE3JTB-15 | 2026-08-31 18:24:41 | 44.75369 | 21.01303 | 254° | 20km/h | 23676m | 6.1m/s | -53.7°C | 0% | 0hPa | 5.6V | 00:00:00 | 00:00:00 | 00:00:00 | |
| OM5KV | 2026-08-31 18:24:39 | 44.75372 | 21.01314 | 218° | 9km/h | 23667m | 6.1m/s | -54.4°C | 1.9% | 0hPa | 5.6V | 00:00:00 | 00:00:00 | 00:00:00 | |
| OM5KV | 2026-08-31 18:24:32 | 44.75407 | 21.01299 | 223° | 26km/h | 23624m | 6.1m/s | -54.4°C | 1.9% | 0hPa | 5.6V | 00:00:00 | 00:00:00 | 00:00:00 | |
| OM5KV | 2026-08-31 18:24:21 | 44.75455 | 21.01307 | 207° | 18km/h | 23557m | 5.9m/s | -54.4°C | 1.9% | 0hPa | 5.6V | 00:00:00 | 00:00:00 | 00:00:00 | |
| OM5KV | 2026-08-31 18:24:15 | 44.75475 | 21.01310 | 144° | 16km/h | 23523m | 7.3m/s | -54.4°C | 2.0% | 0hPa | 5.6V | 00:00:00 | 00:00:00 | 00:00:00 | |
| OE3JTB-15 | 2026-08-31 18:24:12 | 44.75486 | 21.01308 | 195° | 9km/h | 23502m | 8.1m/s | -53.6°C | 0% | 0hPa | 5.6V | 00:00:00 | 00:00:00 | 00:00:00 | |
| OM5KV | 2026-08-31 18:24:08 | 44.75495 | 21.01312 | 125° | 11km/h | 23478m | 5.2m/s | -54.3°C | 1.9% | 0hPa | 5.6V | 00:00:00 | 00:00:00 | 00:00:00 | |
| OM5KV | 2026-08-31 18:24:02 | 44.75505 | 21.01303 | 151° | 5km/h | 23439m | 5.4m/s | -54.2°C | 1.9% | 0hPa | 5.6V | 00:00:00 | 00:00:00 | 00:00:00 | |
| LZ4TU-5 | 2026-08-31 18:23:58 | 44.75510 | 21.01310 | 249° | 7km/h | 23414m | 4.4m/s | -54.1°C | 1.9% | 0hPa | 5.6V | 00:00:00 | 00:00:00 | 00:00:00 | |
| LZ4TU-5 | 2026-08-31 18:23:54 | 44.75506 | 21.01304 | 47° | 15km/h | 23390m | 6.9m/s | -54.2°C | 1.9% | 0hPa | 5.6V | 00:00:00 | 00:00:00 | 00:00:00 | |
| OM5KV | 2026-08-31 18:23:52 | 44.75502 | 21.01301 | 315° | 7km/h | 23378m | 6.0m/s | -54.3°C | 1.9% | 0hPa | 5.6V | 00:00:00 | 00:00:00 | 00:00:00 | |
| OE3JTB-15 | 2026-08-31 18:23:43 | 44.75499 | 21.01314 | 358° | 9km/h | 23323m | 4.9m/s | -53.6°C | 0% | 0hPa | 5.6V | 00:00:00 | 00:00:00 | 00:00:00 | |
| OM5KV | 2026-08-31 18:23:37 | 44.75493 | 21.01332 | 323° | 18km/h | 23289m | 7.8m/s | -54.2°C | 2.0% | 0hPa | 5.6V | 00:00:00 | 00:00:00 | 00:00:00 | |
| OM5KV | 2026-08-31 18:23:23 | 44.75452 | 21.01381 | 333° | 27km/h | 23201m | 5.5m/s | -54.2°C | 1.9% | 0hPa | 5.6V | 00:00:00 | 00:00:00 | 00:00:00 | |
| OM5KV | 2026-08-31 18:23:16 | 44.75432 | 21.01403 | 261° | 20km/h | 23157m | 8.0m/s | -54.0°C | 1.9% | 0hPa | 5.6V | 00:00:00 | 00:00:00 | 00:00:00 | |
| OM5KV | 2026-08-31 18:23:11 | 44.75421 | 21.01433 | 335° | 24km/h | 23127m | 6.8m/s | -54.0°C | 1.9% | 0hPa | 5.6V | 00:00:00 | 00:00:00 | 00:00:00 | |
| OM5KV | 2026-08-31 18:23:06 | 44.75403 | 21.01454 | 245° | 15km/h | 23097m | 6.8m/s | -54.0°C | 1.9% | 0hPa | 5.6V | 00:00:00 | 00:00:00 | 00:00:00 | |
| OM5KV | 2026-08-31 18:22:51 | 44.75403 | 21.01537 | 250° | 22km/h | 23006m | 7.1m/s | -54.0°C | 1.8% | 0hPa | 5.6V | 00:00:00 | 00:00:00 | 00:00:00 | |
| OM5KV | 2026-08-31 18:22:40 | 44.75418 | 21.01619 | 215° | 24km/h | 22942m | 5.9m/s | -54.4°C | 1.9% | 0hPa | 5.6V | 00:00:00 | 00:00:00 | 00:00:00 | |
| OE3JTB-15 | 2026-08-31 18:22:28 | 44.75447 | 21.01669 | 154° | 9km/h | 22870m | 4.6m/s | -53.6°C | 0% | 0hPa | 5.6V | 00:00:00 | 00:00:00 | 00:00:00 | |
| OM5KV | 2026-08-31 18:22:23 | 44.75469 | 21.01674 | 224° | 27km/h | 22840m | 6.0m/s | -54.4°C | 1.9% | 0hPa | 5.6V | 00:00:00 | 00:00:00 | 00:00:00 | |
| OM5KV | 2026-08-31 18:22:13 | 44.75498 | 21.01668 | 206° | 20km/h | 22780m | 7.1m/s | -54.7°C | 2.0% | 0hPa | 5.6V | 00:00:00 | 00:00:00 | 00:00:00 | |
| OM5KV | 2026-08-31 18:22:08 | 44.75524 | 21.01692 | 230° | 7km/h | 22751m | 7.1m/s | -54.7°C | 2.0% | 0hPa | 5.6V | 00:00:00 | 00:00:00 | 00:00:00 | |
| OM5KV | 2026-08-31 18:21:59 | 44.75545 | 21.01682 | 211° | 29km/h | 22700m | 4.2m/s | -54.5°C | 1.9% | 0hPa | 5.6V | 00:00:00 | 00:00:00 | 00:00:00 | |
| OM5KV | 2026-08-31 18:21:50 | 44.75546 | 21.01683 | 208° | 11km/h | 22648m | 5.0m/s | -54.9°C | 1.9% | 0hPa | 5.6V | 00:00:00 | 00:00:00 | 00:00:00 | |
| OM5KV | 2026-08-31 18:21:35 | 44.75564 | 21.01715 | 200° | 13km/h | 22560m | 4.1m/s | -55.2°C | 2.1% | 0hPa | 5.6V | 00:00:00 | 00:00:00 | 00:00:00 | |
| LZ4TU-5 | 2026-08-31 18:21:22 | 44.75557 | 21.01738 | 296° | 9km/h | 22478m | 7.2m/s | -55.3°C | 2.1% | 0hPa | 5.6V | 00:00:00 | 00:00:00 | 00:00:00 | |
| LZ4TU-5 | 2026-08-31 18:21:17 | 44.75540 | 21.01733 | 46° | 15km/h | 22450m | 4.9m/s | -55.3°C | 2.1% | 0hPa | 5.6V | 00:00:00 | 00:00:00 | 00:00:00 | |
| OM5KV | 2026-08-31 18:21:16 | 44.75538 | 21.01730 | 39° | 9km/h | 22444m | 6.3m/s | -55.4°C | 2.1% | 0hPa | 5.6V | 00:00:00 | 00:00:00 | 00:00:00 | |
| OM5KV | 2026-08-31 18:21:07 | 44.75536 | 21.01751 | 77° | 9km/h | 22388m | 7.1m/s | -55.3°C | 2.1% | 0hPa | 5.6V | 00:00:00 | 00:00:00 | 00:00:00 | |
| OM5KV | 2026-08-31 18:20:58 | 44.75535 | 21.01752 | 0° | 0km/h | 22333m | 5.3m/s | -55.3°C | 2.2% | 0hPa | 5.6V | 00:00:00 | 00:00:00 | 00:00:00 | |
| OM5KV | 2026-08-31 18:20:51 | 44.75529 | 21.01730 | 339° | 7km/h | 22291m | 6.5m/s | -55.2°C | 2.1% | 0hPa | 5.6V | 00:00:00 | 00:00:00 | 00:00:00 | |
| OM5KV | 2026-08-31 18:20:45 | 44.75522 | 21.01724 | 41° | 22km/h | 22256m | 5.1m/s | -55.2°C | 2.1% | 0hPa | 5.6V | 00:00:00 | 00:00:00 | 00:00:00 | |
| OM5KV | 2026-08-31 18:20:28 | 44.75500 | 21.01688 | 210° | 4km/h | 22152m | 5.4m/s | -55.4°C | 2.2% | 0hPa | 5.6V | 00:00:00 | 00:00:00 | 00:00:00 | |
| OE3JTB-15 | 2026-08-31 18:20:09 | 44.75491 | 21.01680 | 349° | 5km/h | 22037m | 5.4m/s | -54.6°C | 0% | 0hPa | 5.6V | 00:00:00 | 00:00:00 | 00:00:00 | |
| OM5KV | 2026-08-31 18:20:08 | 44.75488 | 21.01681 | 336° | 13km/h | 22032m | 4.1m/s | -55.4°C | 2.1% | 0hPa | 5.7V | 00:00:00 | 00:00:00 | 00:00:00 | |
| LZ4TU-5 | 2026-08-31 18:20:05 | 44.75480 | 21.01683 | 30° | 7km/h | 22014m | 5.8m/s | -55.5°C | 2.1% | 0hPa | 5.7V | 00:00:00 | 00:00:00 | 00:00:00 | |
| OM5KV | 2026-08-31 18:20:02 | 44.75481 | 21.01688 | 272° | 9km/h | 21991m | 4.8m/s | -55.6°C | 2.2% | 0hPa | 5.7V | 00:00:00 | 00:00:00 | 00:00:00 | |
| OM5KV | 2026-08-31 18:19:56 | 44.75482 | 21.01687 | 104° | 4km/h | 21961m | 6.8m/s | -55.8°C | 2.3% | 0hPa | 5.7V | 00:00:00 | 00:00:00 | 00:00:00 | |
| OM5KV | 2026-08-31 18:19:47 | 44.75488 | 21.01666 | 112° | 9km/h | 21903m | 7.6m/s | -55.6°C | 2.2% | 0hPa | 5.7V | 00:00:00 | 00:00:00 | 00:00:00 | |
| OM5KV | 2026-08-31 18:19:40 | 44.75502 | 21.01648 | 96° | 15km/h | 21860m | 4.9m/s | -55.4°C | 2.1% | 0hPa | 5.7V | 00:00:00 | 00:00:00 | 00:00:00 | |
| OE3JTB-15 | 2026-08-31 18:19:39 | 44.75501 | 21.01643 | 85° | 18km/h | 21853m | 7.4m/s | -54.5°C | 0% | 0hPa | 5.7V | 00:00:00 | 00:00:00 | 00:00:00 | |
| OM5KV | 2026-08-31 18:19:31 | 44.75500 | 21.01622 | 147° | 11km/h | 21806m | 6.2m/s | -55.3°C | 2.1% | 0hPa | 5.7V | 00:00:00 | 00:00:00 | 00:00:00 | |
| OM5KV | 2026-08-31 18:19:24 | 44.75499 | 21.01580 | 47° | 15km/h | 21761m | 5.3m/s | -55.7°C | 2.2% | 0hPa | 5.7V | 00:00:00 | 00:00:00 | 00:00:00 | |
| OM5KV | 2026-08-31 18:19:19 | 44.75490 | 21.01573 | 125° | 11km/h | 21729m | 6.8m/s | -55.8°C | 2.2% | 0hPa | 5.7V | 00:00:00 | 00:00:00 | 00:00:00 | |
| OM5KV | 2026-08-31 18:19:12 | 44.75486 | 21.01529 | 59° | 16km/h | 21689m | 5.5m/s | -56.2°C | 2.3% | 0hPa | 5.7V | 00:00:00 | 00:00:00 | 00:00:00 | |
| OM5KV | 2026-08-31 18:18:56 | 44.75429 | 21.01452 | 62° | 16km/h | 21591m | 6.6m/s | -56.0°C | 2.3% | 0hPa | 5.7V | 00:00:00 | 00:00:00 | 00:00:00 | |
| LZ4TU-5 | 2026-08-31 18:18:50 | 44.75408 | 21.01429 | 19° | 27km/h | 21557m | 5.4m/s | -55.9°C | 2.3% | 0hPa | 5.7V | 00:00:00 | 00:00:00 | 00:00:00 | |
| OM5KV | 2026-08-31 18:18:47 | 44.75394 | 21.01419 | 35° | 16km/h | 21538m | 6.5m/s | -55.9°C | 2.3% | 0hPa | 5.7V | 00:00:00 | 00:00:00 | 00:00:00 | |
| OE3JTB-15 | 2026-08-31 18:18:45 | 44.75386 | 21.01414 | 13° | 13km/h | 21526m | 5.1m/s | -55.0°C | 0% | 0hPa | 5.7V | 00:00:00 | 00:00:00 | 00:00:00 | |
| OM5KV | 2026-08-31 18:18:41 | 44.75374 | 21.01403 | 31° | 18km/h | 21502m | 5.5m/s | -55.8°C | 2.2% | 0hPa | 5.7V | 00:00:00 | 00:00:00 | 00:00:00 | |
| OM5KV | 2026-08-31 18:18:36 | 44.75351 | 21.01396 | 28° | 9km/h | 21472m | 5.3m/s | -55.7°C | 2.2% | 0hPa | 5.7V | 00:00:00 | 00:00:00 | 00:00:00 | |
| OM5KV | 2026-08-31 18:18:28 | 44.75334 | 21.01387 | 22° | 15km/h | 21421m | 5.8m/s | -55.8°C | 2.2% | 0hPa | 5.7V | 00:00:00 | 00:00:00 | 00:00:00 | |
| OM5KV | 2026-08-31 18:18:17 | 44.75317 | 21.01382 | 330° | 5km/h | 21351m | 7.6m/s | -55.9°C | 2.3% | 0hPa | 5.7V | 00:00:00 | 00:00:00 | 00:00:00 | |
| OE3JTB-15 | 2026-08-31 18:18:16 | 44.75316 | 21.01382 | 39° | 9km/h | 21345m | 5.4m/s | -55.1°C | 0% | 0hPa | 5.7V | 00:00:00 | 00:00:00 | 00:00:00 | |
| OM5KV | 2026-08-31 18:18:12 | 44.75314 | 21.01379 | 254° | 7km/h | 21322m | 5.1m/s | -56.1°C | 2.3% | 0hPa | 5.7V | 00:00:00 | 00:00:00 | 00:00:00 | |
| OM5KV | 2026-08-31 18:18:03 | 44.75298 | 21.01383 | 16° | 20km/h | 21266m | 5.8m/s | -56.0°C | 2.3% | 0hPa | 5.7V | 00:00:00 | 00:00:00 | 00:00:00 | |
| OM5KV | 2026-08-31 18:17:55 | 44.75276 | 21.01379 | 340° | 9km/h | 21216m | 6.0m/s | -56.0°C | 2.3% | 0hPa | 5.7V | 00:00:00 | 00:00:00 | 00:00:00 | |
| OM5KV | 2026-08-31 18:17:49 | 44.75265 | 21.01373 | 38° | 4km/h | 21179m | 6.5m/s | -56.1°C | 2.4% | 0hPa | 5.7V | 00:00:00 | 00:00:00 | 00:00:00 | |
| OE3JTB-15 | 2026-08-31 18:17:45 | 44.75258 | 21.01373 | 349° | 9km/h | 21155m | 5.2m/s | -55.3°C | 0% | 0hPa | 5.7V | 00:00:00 | 00:00:00 | 00:00:00 | |
| OM5KV | 2026-08-31 18:17:43 | 44.75252 | 21.01377 | 331° | 15km/h | 21142m | 6.1m/s | -56.1°C | 2.4% | 0hPa | 5.7V | 00:00:00 | 00:00:00 | 00:00:00 | |
| OM5KV | 2026-08-31 18:17:38 | 44.75237 | 21.01373 | 42° | 5km/h | 21111m | 6.3m/s | -56.1°C | 2.4% | 0hPa | 5.7V | 00:00:00 | 00:00:00 | 00:00:00 | |
| LZ4TU-5 | 2026-08-31 18:17:32 | 44.75232 | 21.01376 | 283° | 7km/h | 21074m | 5.9m/s | -56.2°C | 2.4% | 0hPa | 5.7V | 00:00:00 | 00:00:00 | 00:00:00 | |
| LZ4TU-5 | 2026-08-31 18:17:28 | 44.75223 | 21.01384 | 344° | 13km/h | 21050m | 5.7m/s | -56.2°C | 2.4% | 0hPa | 5.7V | 00:00:00 | 00:00:00 | 00:00:00 | |
| OM5KV | 2026-08-31 18:17:27 | 44.75220 | 21.01385 | 343° | 7km/h | 21043m | 7.3m/s | -56.2°C | 2.4% | 0hPa | 5.7V | 00:00:00 | 00:00:00 | 00:00:00 | |
| OM5KV | 2026-08-31 18:17:21 | 44.75218 | 21.01388 | 303° | 7km/h | 21007m | 6.9m/s | -56.1°C | 2.4% | 0hPa | 5.7V | 00:00:00 | 00:00:00 | 00:00:00 | |
| OE3JTB-15 | 2026-08-31 18:17:16 | 44.75215 | 21.01405 | 272° | 9km/h | 20976m | 6.4m/s | -55.2°C | 0% | 0hPa | 5.7V | 00:00:00 | 00:00:00 | 00:00:00 | |
| OM5KV | 2026-08-31 18:17:15 | 44.75216 | 21.01408 | 251° | 9km/h | 20969m | 6.1m/s | -56.0°C | 2.4% | 0hPa | 5.7V | 00:00:00 | 00:00:00 | 00:00:00 | |
| OM5KV | 2026-08-31 18:17:10 | 44.75214 | 21.01421 | 277° | 11km/h | 20940m | 7.2m/s | -56.0°C | 2.4% | 0hPa | 5.7V | 00:00:00 | 00:00:00 | 00:00:00 | |
| OM5KV | 2026-08-31 18:17:02 | 44.75228 | 21.01446 | 154° | 9km/h | 20893m | 5.8m/s | -55.9°C | 2.4% | 0hPa | 5.7V | 00:00:00 | 00:00:00 | 00:00:00 | |
| OM5KV | 2026-08-31 18:16:53 | 44.75227 | 21.01451 | 232° | 9km/h | 20839m | 7.2m/s | -55.8°C | 2.4% | 0hPa | 5.7V | 00:00:00 | 00:00:00 | 00:00:00 | |
| OE3JTB-15 | 2026-08-31 18:16:46 | 44.75230 | 21.01431 | 69° | 15km/h | 20797m | 5.0m/s | -54.9°C | 0% | 0hPa | 5.7V | 00:00:00 | 00:00:00 | 00:00:00 | |
| OM5KV | 2026-08-31 18:16:42 | 44.75229 | 21.01436 | 305° | 9km/h | 20774m | 4.7m/s | -55.9°C | 2.5% | 0hPa | 5.7V | 00:00:00 | 00:00:00 | 00:00:00 | |
| OM5KV | 2026-08-31 18:16:35 | 44.75228 | 21.01414 | 97° | 11km/h | 20733m | 6.6m/s | -55.8°C | 2.4% | 0hPa | 5.7V | 00:00:00 | 00:00:00 | 00:00:00 | |
| OM5KV | 2026-08-31 18:16:22 | 44.75219 | 21.01381 | 96° | 18km/h | 20656m | 3.3m/s | -55.9°C | 2.5% | 0hPa | 5.7V | 00:00:00 | 00:00:00 | 00:00:00 | |
| OM5KV | 2026-08-31 18:16:17 | 44.75211 | 21.01367 | 354° | 11km/h | 20624m | 6.0m/s | -55.9°C | 2.5% | 0hPa | 5.7V | 00:00:00 | 00:00:00 | 00:00:00 | |
| LZ4TU-5 | 2026-08-31 18:16:14 | 44.75207 | 21.01368 | 45° | 7km/h | 20606m | 4.8m/s | -55.8°C | 2.5% | 0hPa | 5.7V | 00:00:00 | 00:00:00 | 00:00:00 | |
| OM5KV | 2026-08-31 18:16:11 | 44.75208 | 21.01361 | 0° | 0km/h | 20587m | 4.8m/s | -55.8°C | 2.6% | 0hPa | 5.7V | 00:00:00 | 00:00:00 | 00:00:00 | |
| LZ4TU-5 | 2026-08-31 18:16:09 | 44.75206 | 21.01360 | 13° | 9km/h | 20574m | 5.4m/s | -55.7°C | 2.5% | 0hPa | 5.7V | 00:00:00 | 00:00:00 | 00:00:00 | |
| OM5KV | 2026-08-31 18:16:06 | 44.75198 | 21.01362 | 328° | 11km/h | 20556m | 5.0m/s | -55.7°C | 2.5% | 0hPa | 5.7V | 00:00:00 | 00:00:00 | 00:00:00 | |
| OM5KV | 2026-08-31 18:16:00 | 44.75197 | 21.01366 | 0° | 0km/h | 20519m | 6.8m/s | -55.5°C | 2.4% | 0hPa | 5.7V | 00:00:00 | 00:00:00 | 00:00:00 | |
| OM5KV | 2026-08-31 18:15:55 | 44.75188 | 21.01377 | 306° | 18km/h | 20490m | 6.0m/s | -55.5°C | 2.4% | 0hPa | 5.7V | 00:00:00 | 00:00:00 | 00:00:00 | |
| OM5KV | 2026-08-31 18:15:47 | 44.75184 | 21.01392 | 0° | 0km/h | 20440m | 6.4m/s | -55.5°C | 2.4% | 0hPa | 5.7V | 00:00:00 | 00:00:00 | 00:00:00 | |
| OM5KV | 2026-08-31 18:15:40 | 44.75187 | 21.01408 | 0° | 0km/h | 20400m | 5.1m/s | -55.7°C | 2.5% | 0hPa | 5.7V | 00:00:00 | 00:00:00 | 00:00:00 | |
| OM5KV | 2026-08-31 18:15:34 | 44.75184 | 21.01392 | 51° | 9km/h | 20364m | 6.0m/s | -55.6°C | 2.5% | 0hPa | 5.7V | 00:00:00 | 00:00:00 | 00:00:00 | |
| OM5KV | 2026-08-31 18:15:29 | 44.75186 | 21.01395 | 167° | 5km/h | 20333m | 6.6m/s | -55.8°C | 2.5% | 0hPa | 5.7V | 00:00:00 | 00:00:00 | 00:00:00 | |
| OM5KV | 2026-08-31 18:15:22 | 44.75191 | 21.01362 | 84° | 18km/h | 20292m | 6.1m/s | -55.7°C | 2.4% | 0hPa | 5.7V | 00:00:00 | 00:00:00 | 00:00:00 | |
| OM5KV | 2026-08-31 18:15:16 | 44.75199 | 21.01336 | 113° | 16km/h | 20256m | 4.9m/s | -55.9°C | 2.5% | 0hPa | 5.7V | 00:00:00 | 00:00:00 | 00:00:00 | |
| OM5KV | 2026-08-31 18:15:07 | 44.75193 | 21.01308 | 0° | 0km/h | 20204m | 5.5m/s | -55.9°C | 2.5% | 0hPa | 5.7V | 00:00:00 | 00:00:00 | 00:00:00 | |
| OM5KV | 2026-08-31 18:15:00 | 44.75199 | 21.01286 | 101° | 9km/h | 20165m | 6.8m/s | -55.9°C | 2.5% | 0hPa | 5.7V | 00:00:00 | 00:00:00 | 00:00:00 | |
| LZ4TU-5 | 2026-08-31 18:14:55 | 44.75205 | 21.01263 | 104° | 16km/h | 20135m | 6.7m/s | -56.0°C | 2.4% | 0hPa | 5.7V | 00:00:00 | 00:00:00 | 00:00:00 | |
| OM5KV | 2026-08-31 18:14:54 | 44.75206 | 21.01257 | 88° | 20km/h | 20129m | 6.2m/s | -56.0°C | 2.5% | 0hPa | 5.7V | 00:00:00 | 00:00:00 | 00:00:00 | |
| LZ4TU-5 | 2026-08-31 18:14:51 | 44.75200 | 21.01239 | 51° | 20km/h | 20111m | 5.6m/s | -56.2°C | 2.5% | 0hPa | 5.7V | 00:00:00 | 00:00:00 | 00:00:00 | |
| OM5KV | 2026-08-31 18:14:49 | 44.75194 | 21.01226 | 68° | 22km/h | 20099m | 4.9m/s | -56.3°C | 2.5% | 0hPa | 5.7V | 00:00:00 | 00:00:00 | 00:00:00 | |
| OM5KV | 2026-08-31 18:14:37 | 44.75191 | 21.01145 | 110° | 26km/h | 20031m | 6.1m/s | -56.4°C | 2.6% | 0hPa | 5.7V | 00:00:00 | 00:00:00 | 00:00:00 | |
| OM5KV | 2026-08-31 18:14:34 | 44.75202 | 21.01127 | 140° | 20km/h | 20014m | 5.1m/s | -56.5°C | 2.6% | 0hPa | 5.7V | 00:00:00 | 00:00:00 | 00:00:00 | |
| OM5KV | 2026-08-31 18:14:32 | 44.75206 | 21.01115 | 82° | 20km/h | 20004m | 5.4m/s | -56.6°C | 2.7% | 0hPa | 5.7V | 00:00:00 | 00:00:00 | 00:00:00 | |
| OE3JTB-15 | 2026-08-31 18:14:26 | 44.75176 | 21.01073 | 68° | 13km/h | 19968m | 5.9m/s | -55.8°C | 0% | 0hPa | 5.7V | 00:00:00 | 00:00:00 | 00:00:00 | |
| OM5KV | 2026-08-31 18:14:17 | 44.75160 | 21.01038 | 29° | 24km/h | 19916m | 5.7m/s | -56.5°C | 2.7% | 0hPa | 5.7V | 00:00:00 | 00:00:00 | 00:00:00 | |
| OM5KV | 2026-08-31 18:14:11 | 44.75151 | 21.01022 | 19° | 2km/h | 19881m | 5.9m/s | -56.3°C | 2.7% | 0hPa | 5.7V | 00:00:00 | 00:00:00 | 00:00:00 | |
| OM5KV | 2026-08-31 18:14:04 | 44.75129 | 21.01016 | 50° | 13km/h | 19842m | 5.5m/s | -56.2°C | 2.7% | 0hPa | 5.7V | 00:00:00 | 00:00:00 | 00:00:00 | |
| OM5KV | 2026-08-31 18:14:03 | 44.75127 | 21.01012 | 67° | 13km/h | 19837m | 4.8m/s | -56.2°C | 2.7% | 0hPa | 5.7V | 00:00:00 | 00:00:00 | 00:00:00 | |
| OM5KV | 2026-08-31 18:13:58 | 44.75124 | 21.01008 | 297° | 5km/h | 19809m | 4.9m/s | -56.3°C | 2.7% | 0hPa | 5.7V | 00:00:00 | 00:00:00 | 00:00:00 | |
| OE3JTB-15 | 2026-08-31 18:13:57 | 44.75123 | 21.01012 | 296° | 9km/h | 19802m | 7.4m/s | -55.5°C | 0% | 0hPa | 5.7V | 00:00:00 | 00:00:00 | 00:00:00 | |
| OM5KV | 2026-08-31 18:13:51 | 44.75119 | 21.01012 | 124° | 7km/h | 19768m | 5.6m/s | -56.5°C | 2.7% | 0hPa | 5.7V | 00:00:00 | 00:00:00 | 00:00:00 | |
| OM5KV | 2026-08-31 18:13:42 | 44.75123 | 21.01007 | 91° | 13km/h | 19719m | 6.8m/s | -56.4°C | 2.7% | 0hPa | 5.7V | 00:00:00 | 00:00:00 | 00:00:00 | |
| OM5KV | 2026-08-31 18:13:40 | 44.75125 | 21.00996 | 118° | 16km/h | 19706m | 6.9m/s | -56.4°C | 2.7% | 0hPa | 5.7V | 00:00:00 | 00:00:00 | 00:00:00 | |
| OM5KV | 2026-08-31 18:13:33 | 44.75138 | 21.00982 | 75° | 9km/h | 19666m | 6.8m/s | -56.6°C | 2.8% | 0hPa | 5.7V | 00:00:00 | 00:00:00 | 00:00:00 | |
| OM5KV | 2026-08-31 18:13:31 | 44.75134 | 21.00974 | 57° | 18km/h | 19656m | 4.8m/s | -56.6°C | 2.8% | 0hPa | 5.7V | 00:00:00 | 00:00:00 | 00:00:00 | |
| OE3JTB-15 | 2026-08-31 18:13:28 | 44.75134 | 21.00957 | 124° | 13km/h | 19639m | 5.8m/s | -55.8°C | 0% | 0hPa | 5.7V | 00:00:00 | 00:00:00 | 00:00:00 | |
| OM5KV | 2026-08-31 18:13:27 | 44.75136 | 21.00953 | 140° | 15km/h | 19632m | 6.6m/s | -56.7°C | 2.9% | 0hPa | 5.7V | 00:00:00 | 00:00:00 | 00:00:00 | |
| LZ4TU-5 | 2026-08-31 18:13:24 | 44.75145 | 21.00943 | 122° | 16km/h | 19616m | 4.9m/s | -56.8°C | 2.9% | 0hPa | 5.7V | 00:00:00 | 00:00:00 | 00:00:00 | |
| OM5KV | 2026-08-31 18:13:22 | 44.75146 | 21.00932 | 78° | 15km/h | 19604m | 6.9m/s | -56.8°C | 2.9% | 0hPa | 5.7V | 00:00:00 | 00:00:00 | 00:00:00 | |
| OM5KV | 2026-08-31 18:13:20 | 44.75144 | 21.00921 | 78° | 18km/h | 19593m | 6.5m/s | -56.7°C | 2.9% | 0hPa | 5.7V | 00:00:00 | 00:00:00 | 00:00:00 | |
| OM5KV | 2026-08-31 18:13:16 | 44.75144 | 21.00896 | 89° | 15km/h | 19570m | 4.9m/s | -56.6°C | 2.8% | 0hPa | 5.7V | 00:00:00 | 00:00:00 | 00:00:00 | |
| OM5KV | 2026-08-31 18:13:14 | 44.75144 | 21.00884 | 97° | 18km/h | 19558m | 5.9m/s | -56.5°C | 2.8% | 0hPa | 5.7V | 00:00:00 | 00:00:00 | 00:00:00 | |
| OM5KV | 2026-08-31 18:13:10 | 44.75141 | 21.00859 | 58° | 18km/h | 19534m | 6.2m/s | -56.6°C | 2.9% | 0hPa | 5.7V | 00:00:00 | 00:00:00 | 00:00:00 | |
| OM5KV | 2026-08-31 18:13:09 | 44.75139 | 21.00854 | 66° | 16km/h | 19527m | 6.7m/s | -56.6°C | 2.9% | 0hPa | 5.7V | 00:00:00 | 00:00:00 | 00:00:00 | |
| OM5KV | 2026-08-31 18:13:04 | 44.75134 | 21.00831 | 57° | 16km/h | 19500m | 4.8m/s | -56.6°C | 2.9% | 0hPa | 5.7V | 00:00:00 | 00:00:00 | 00:00:00 | |
| OM5KV | 2026-08-31 18:12:58 | 44.75127 | 21.00805 | 27° | 13km/h | 19467m | 4.7m/s | -56.8°C | 3.0% | 0hPa | 5.7V | 00:00:00 | 00:00:00 | 00:00:00 | |
| OM5KV | 2026-08-31 18:12:53 | 44.75112 | 21.00777 | 57° | 29km/h | 19438m | 7.0m/s | -56.9°C | 3.0% | 0hPa | 5.7V | 00:00:00 | 00:00:00 | 00:00:00 | |
| OM5KV | 2026-08-31 18:12:48 | 44.75086 | 21.00734 | 65° | 22km/h | 19411m | 5.3m/s | -56.7°C | 3.1% | 0hPa | 5.7V | 00:00:00 | 00:00:00 | 00:00:00 | |
| OM5KV | 2026-08-31 18:12:47 | 44.75084 | 21.00729 | 61° | 15km/h | 19404m | 6.5m/s | -56.7°C | 3.1% | 0hPa | 5.7V | 00:00:00 | 00:00:00 | 00:00:00 | |
| OM5KV | 2026-08-31 18:12:42 | 44.75074 | 21.00722 | 39° | 13km/h | 19376m | 5.6m/s | -56.8°C | 3.1% | 0hPa | 5.7V | 00:00:00 | 00:00:00 | 00:00:00 | |
| OM5KV | 2026-08-31 18:12:37 | 44.75050 | 21.00695 | 43° | 20km/h | 19347m | 5.8m/s | -56.8°C | 3.2% | 0hPa | 5.7V | 00:00:00 | 00:00:00 | 00:00:00 | |
| OM5KV | 2026-08-31 18:12:31 | 44.75037 | 21.00678 | 47° | 11km/h | 19312m | 6.3m/s | -56.6°C | 3.3% | 0hPa | 5.7V | 00:00:00 | 00:00:00 | 00:00:00 | |
| OM5KV | 2026-08-31 18:12:30 | 44.75035 | 21.00676 | 27° | 15km/h | 19307m | 5.1m/s | -56.5°C | 3.2% | 0hPa | 5.7V | 00:00:00 | 00:00:00 | 00:00:00 | |
| OM5KV | 2026-08-31 18:12:26 | 44.75022 | 21.00668 | 13° | 13km/h | 19284m | 6.1m/s | -56.4°C | 3.3% | 0hPa | 5.7V | 00:00:00 | 00:00:00 | 00:00:00 | |
| OM5KV | 2026-08-31 18:12:25 | 44.75018 | 21.00667 | 358° | 15km/h | 19278m | 5.6m/s | -56.4°C | 3.3% | 0hPa | 5.7V | 00:00:00 | 00:00:00 | 00:00:00 | |
| OM5KV | 2026-08-31 18:12:20 | 44.75003 | 21.00656 | 48° | 16km/h | 19248m | 6.8m/s | -56.3°C | 3.2% | 0hPa | 5.7V | 00:00:00 | 00:00:00 | 00:00:00 | |
| OM5KV | 2026-08-31 18:12:19 | 44.75000 | 21.00653 | 35° | 13km/h | 19243m | 5.0m/s | -56.2°C | 3.2% | 0hPa | 5.7V | 00:00:00 | 00:00:00 | 00:00:00 | |
| OM5KV | 2026-08-31 18:12:15 | 44.74993 | 21.00644 | 25° | 5km/h | 19220m | 6.6m/s | -56.0°C | 3.2% | 0hPa | 5.7V | 00:00:00 | 00:00:00 | 00:00:00 | |
| OM5KV | 2026-08-31 18:12:14 | 44.74992 | 21.00644 | 8° | 5km/h | 19214m | 5.9m/s | -56.0°C | 3.2% | 0hPa | 5.7V | 00:00:00 | 00:00:00 | 00:00:00 | |
| OM5KV | 2026-08-31 18:12:10 | 44.74987 | 21.00644 | 354° | 2km/h | 19190m | 4.7m/s | -55.9°C | 3.2% | 0hPa | 5.7V | 00:00:00 | 00:00:00 | 00:00:00 | |
| OE3JTB-15 | 2026-08-31 18:12:07 | 44.74981 | 21.00645 | 357° | 11km/h | 19173m | 4.5m/s | -55.1°C | 0% | 0hPa | 5.7V | 00:00:00 | 00:00:00 | 00:00:00 | |
| LZ4TU-5 | 2026-08-31 18:12:05 | 44.74976 | 21.00644 | 20° | 7km/h | 19161m | 6.9m/s | -55.9°C | 3.2% | 0hPa | 5.7V | 00:00:00 | 00:00:00 | 00:00:00 | |
| OM5KV | 2026-08-31 18:12:04 | 44.74976 | 21.00643 | 145° | 7km/h | 19155m | 5.7m/s | -55.8°C | 3.2% | 0hPa | 5.7V | 00:00:00 | 00:00:00 | 00:00:00 | |
| OM5KV | 2026-08-31 18:12:03 | 44.74978 | 21.00642 | 160° | 9km/h | 19149m | 5.8m/s | -55.8°C | 3.2% | 0hPa | 5.7V | 00:00:00 | 00:00:00 | 00:00:00 | |
| OM5KV | 2026-08-31 18:11:59 | 44.74980 | 21.00644 | 4° | 5km/h | 19125m | 6.2m/s | -55.6°C | 3.2% | 0hPa | 5.7V | 00:00:00 | 00:00:00 | 00:00:00 | |
| OM5KV | 2026-08-31 18:11:57 | 44.74976 | 21.00640 | 50° | 15km/h | 19112m | 6.6m/s | -55.6°C | 3.2% | 0hPa | 5.7V | 00:00:00 | 00:00:00 | 00:00:00 | |
| OM5KV | 2026-08-31 18:11:53 | 44.74969 | 21.00620 | 111° | 13km/h | 19089m | 5.7m/s | -55.7°C | 3.3% | 0hPa | 5.7V | 00:00:00 | 00:00:00 | 00:00:00 | |
| OM5KV | 2026-08-31 18:11:52 | 44.74970 | 21.00616 | 137° | 11km/h | 19083m | 6.1m/s | -55.7°C | 3.3% | 0hPa | 5.7V | 00:00:00 | 00:00:00 | 00:00:00 | |
| OM5KV | 2026-08-31 18:11:48 | 44.74974 | 21.00613 | 66° | 5km/h | 19055m | 5.0m/s | -55.9°C | 3.3% | 0hPa | 5.7V | 00:00:00 | 00:00:00 | 00:00:00 | |
| OM5KV | 2026-08-31 18:11:46 | 44.74972 | 21.00610 | 49° | 11km/h | 19048m | 7.2m/s | -55.9°C | 3.3% | 0hPa | 5.7V | 00:00:00 | 00:00:00 | 00:00:00 | |
| OM5KV | 2026-08-31 18:11:42 | 44.74960 | 21.00591 | 98° | 11km/h | 19019m | 5.2m/s | -55.9°C | 3.3% | 0hPa | 5.7V | 00:00:00 | 00:00:00 | 00:00:00 | |
| OM5KV | 2026-08-31 18:11:37 | 44.74955 | 21.00575 | 39° | 16km/h | 18996m | 6.4m/s | -56.0°C | 3.3% | 0hPa | 5.7V | 00:00:00 | 00:00:00 | 00:00:00 | |
| OM5KV | 2026-08-31 18:11:36 | 44.74952 | 21.00572 | 34° | 18km/h | 18990m | 5.6m/s | -56.1°C | 3.3% | 0hPa | 5.7V | 00:00:00 | 00:00:00 | 00:00:00 | |
| OM5KV | 2026-08-31 18:11:30 | 44.74929 | 21.00546 | 72° | 9km/h | 18956m | 5.3m/s | -55.9°C | 3.3% | 0hPa | 5.7V | 00:00:00 | 00:00:00 | 00:00:00 | |
| OM5KV | 2026-08-31 18:11:24 | 44.74910 | 21.00513 | 59° | 24km/h | 18919m | 5.7m/s | -56.0°C | 3.4% | 0hPa | 5.7V | 00:00:00 | 00:00:00 | 00:00:00 | |
| OM5KV | 2026-08-31 18:11:23 | 44.74906 | 21.00505 | 61° | 24km/h | 18913m | 6.3m/s | -56.0°C | 3.4% | 0hPa | 5.7V | 00:00:00 | 00:00:00 | 00:00:00 | |
| OM5KV | 2026-08-31 18:11:18 | 44.74895 | 21.00478 | 59° | 11km/h | 18882m | 6.1m/s | -55.9°C | 3.3% | 0hPa | 5.7V | 00:00:00 | 00:00:00 | 00:00:00 | |
| OM5KV | 2026-08-31 18:11:17 | 44.74893 | 21.00474 | 56° | 18km/h | 18876m | 5.6m/s | -55.9°C | 3.3% | 0hPa | 5.7V | 00:00:00 | 00:00:00 | 00:00:00 | |
| OM5KV | 2026-08-31 18:11:11 | 44.74879 | 21.00419 | 78° | 33km/h | 18842m | 4.9m/s | -55.9°C | 3.3% | 0hPa | 5.7V | 00:00:00 | 00:00:00 | 00:00:00 | |
| OM5KV | 2026-08-31 18:11:07 | 44.74879 | 21.00386 | 97° | 24km/h | 18818m | 7.6m/s | -56.0°C | 3.3% | 0hPa | 5.7V | 00:00:00 | 00:00:00 | 00:00:00 | |
| OM5KV | 2026-08-31 18:11:05 | 44.74879 | 21.00366 | 88° | 31km/h | 18806m | 6.5m/s | -56.1°C | 3.3% | 0hPa | 5.7V | 00:00:00 | 00:00:00 | 00:00:00 | |
| OM5KV | 2026-08-31 18:11:00 | 44.74872 | 21.00303 | 84° | 37km/h | 18777m | 6.4m/s | -56.2°C | 3.3% | 0hPa | 5.7V | 00:00:00 | 00:00:00 | 00:00:00 | |
| OM5KV | 2026-08-31 18:10:55 | 44.74868 | 21.00251 | 80° | 33km/h | 18748m | 5.7m/s | -56.7°C | 3.5% | 0hPa | 5.7V | 00:00:00 | 00:00:00 | 00:00:00 | |
| LZ4TU-5 | 2026-08-31 18:10:52 | 44.74860 | 21.00210 | 75° | 49km/h | 18729m | 7.2m/s | -56.7°C | 3.5% | 0hPa | 5.7V | 00:00:00 | 00:00:00 | 00:00:00 | |
| OM5KV | 2026-08-31 18:10:49 | 44.74852 | 21.00155 | 87° | 46km/h | 18712m | 5.9m/s | -56.7°C | 3.5% | 0hPa | 5.7V | 00:00:00 | 00:00:00 | 00:00:00 | |
| OM5KV | 2026-08-31 18:10:48 | 44.74852 | 21.00140 | 92° | 42km/h | 18706m | 5.3m/s | -56.7°C | 3.5% | 0hPa | 5.7V | 00:00:00 | 00:00:00 | 00:00:00 | |
| OM5KV | 2026-08-31 18:10:44 | 44.74850 | 21.00084 | 75° | 37km/h | 18684m | 6.2m/s | -56.8°C | 3.5% | 0hPa | 5.7V | 00:00:00 | 00:00:00 | 00:00:00 | |
| OM5KV | 2026-08-31 18:10:42 | 44.74845 | 21.00060 | 72° | 37km/h | 18673m | 5.7m/s | -56.9°C | 3.5% | 0hPa | 5.7V | 00:00:00 | 00:00:00 | 00:00:00 | |
| OM5KV | 2026-08-31 18:10:36 | 44.74835 | 20.99974 | 87° | 33km/h | 18639m | 5.9m/s | -56.9°C | 3.5% | 0hPa | 5.7V | 00:00:00 | 00:00:00 | 00:00:00 | |
| OM5KV | 2026-08-31 18:10:32 | 44.74826 | 20.99930 | 61° | 33km/h | 18614m | 5.2m/s | -57.0°C | 3.5% | 0hPa | 5.7V | 00:00:00 | 00:00:00 | 00:00:00 | |
| OM5KV | 2026-08-31 18:10:31 | 44.74821 | 20.99919 | 60° | 37km/h | 18608m | 6.0m/s | -57.0°C | 3.5% | 0hPa | 5.7V | 00:00:00 | 00:00:00 | 00:00:00 | |
| OM5KV | 2026-08-31 18:10:26 | 44.74806 | 20.99853 | 89° | 26km/h | 18581m | 5.3m/s | -57.2°C | 3.5% | 0hPa | 5.7V | 00:00:00 | 00:00:00 | 00:00:00 | |
| OM5KV | 2026-08-31 18:10:25 | 44.74807 | 20.99845 | 99° | 24km/h | 18575m | 5.9m/s | -57.3°C | 3.6% | 0hPa | 5.7V | 00:00:00 | 00:00:00 | 00:00:00 | |
| OM5KV | 2026-08-31 18:10:19 | 44.74795 | 20.99796 | 50° | 35km/h | 18542m | 5.8m/s | -57.7°C | 3.7% | 0hPa | 5.7V | 00:00:00 | 00:00:00 | 00:00:00 | |
| OM5KV | 2026-08-31 18:10:18 | 44.74790 | 20.99786 | 57° | 37km/h | 18537m | 5.0m/s | -57.7°C | 3.7% | 0hPa | 5.7V | 00:00:00 | 00:00:00 | 00:00:00 | |
| OM5KV | 2026-08-31 18:10:12 | 44.74776 | 20.99724 | 73° | 29km/h | 18504m | 5.3m/s | -57.6°C | 3.7% | 0hPa | 5.7V | 00:00:00 | 00:00:00 | 00:00:00 | |
| OM5KV | 2026-08-31 18:10:07 | 44.74753 | 20.99675 | 55° | 40km/h | 18475m | 3.9m/s | -57.5°C | 3.6% | 0hPa | 5.7V | 00:00:00 | 00:00:00 | 00:00:00 | |
| OM5KV | 2026-08-31 18:10:06 | 44.74747 | 20.99664 | 51° | 38km/h | 18469m | 6.4m/s | -57.4°C | 3.6% | 0hPa | 5.7V | 00:00:00 | 00:00:00 | 00:00:00 | |
| OM5KV | 2026-08-31 18:10:02 | 44.74735 | 20.99620 | 81° | 37km/h | 18446m | 5.7m/s | -57.4°C | 3.6% | 0hPa | 5.7V | 00:00:00 | 00:00:00 | 00:00:00 | |
| OM5KV | 2026-08-31 18:09:53 | 44.74702 | 20.99507 | 70° | 37km/h | 18393m | 6.4m/s | -58.1°C | 3.8% | 0hPa | 5.7V | 00:00:00 | 00:00:00 | 00:00:00 | |
| OM5KV | 2026-08-31 18:09:52 | 44.74699 | 20.99494 | 78° | 38km/h | 18388m | 5.1m/s | -58.1°C | 3.8% | 0hPa | 5.7V | 00:00:00 | 00:00:00 | 00:00:00 | |
| OM5KV | 2026-08-31 18:09:47 | 44.74692 | 20.99431 | 83° | 35km/h | 18361m | 5.2m/s | -58.1°C | 3.9% | 0hPa | 5.7V | 00:00:00 | 00:00:00 | 00:00:00 | |
| OM5KV | 2026-08-31 18:09:46 | 44.74690 | 20.99420 | 79° | 31km/h | 18357m | 3.7m/s | -58.1°C | 3.9% | 0hPa | 5.7V | 00:00:00 | 00:00:00 | 00:00:00 | |
| OM5KV | 2026-08-31 18:09:36 | 44.74657 | 20.99313 | 71° | 38km/h | 18297m | 3.9m/s | -58.0°C | 3.8% | 0hPa | 5.7V | 00:00:00 | 00:00:00 | 00:00:00 | |
| OM5KV | 2026-08-31 18:09:34 | 44.74649 | 20.99291 | 54° | 29km/h | 18286m | 6.9m/s | -57.9°C | 3.8% | 0hPa | 5.7V | 00:00:00 | 00:00:00 | 00:00:00 | |
| LZ4TU-5 | 2026-08-31 18:09:32 | 44.74639 | 20.99280 | 30° | 26km/h | 18275m | 4.8m/s | -57.8°C | 3.8% | 0hPa | 5.7V | 00:00:00 | 00:00:00 | 00:00:00 | |
| OM5KV | 2026-08-31 18:09:29 | 44.74620 | 20.99256 | 53° | 42km/h | 18258m | 5.8m/s | -57.7°C | 3.8% | 0hPa | 5.7V | 00:00:00 | 00:00:00 | 00:00:00 | |
| OM5KV | 2026-08-31 18:09:28 | 44.74614 | 20.99244 | 55° | 44km/h | 18251m | 6.5m/s | -57.7°C | 3.8% | 0hPa | 5.7V | 00:00:00 | 00:00:00 | 00:00:00 | |
| LZ4TU-5 | 2026-08-31 18:09:27 | 44.74607 | 20.99232 | 54° | 42km/h | 18245m | 5.8m/s | -57.7°C | 3.8% | 0hPa | 5.7V | 00:00:00 | 00:00:00 | 00:00:00 | |
| OM5KV | 2026-08-31 18:09:24 | 44.74590 | 20.99197 | 55° | 37km/h | 18229m | 4.2m/s | -57.9°C | 3.8% | 0hPa | 5.7V | 00:00:00 | 00:00:00 | 00:00:00 | |
| OM5KV | 2026-08-31 18:09:22 | 44.74581 | 20.99181 | 44° | 20km/h | 18216m | 7.3m/s | -58.0°C | 3.9% | 0hPa | 5.7V | 00:00:00 | 00:00:00 | 00:00:00 | |
| OM5KV | 2026-08-31 18:09:18 | 44.74562 | 20.99167 | 34° | 37km/h | 18194m | 5.8m/s | -58.1°C | 3.9% | 0hPa | 5.7V | 00:00:00 | 00:00:00 | 00:00:00 | |
| OM5KV | 2026-08-31 18:09:11 | 44.74501 | 20.99097 | 27° | 37km/h | 18155m | 7.1m/s | -58.1°C | 4.0% | 0hPa | 5.7V | 00:00:00 | 00:00:00 | 00:00:00 | |
| OM5KV | 2026-08-31 18:09:05 | 44.74462 | 20.99078 | 42° | 40km/h | 18122m | 6.5m/s | -58.1°C | 4.0% | 0hPa | 5.7V | 00:00:00 | 00:00:00 | 00:00:00 | |
| OM5KV | 2026-08-31 18:09:04 | 44.74454 | 20.99067 | 51° | 46km/h | 18116m | 5.7m/s | -58.1°C | 4.0% | 0hPa | 5.7V | 00:00:00 | 00:00:00 | 00:00:00 | |
| OM5KV | 2026-08-31 18:08:59 | 44.74417 | 20.99036 | 343° | 27km/h | 18088m | 7.0m/s | -58.2°C | 4.0% | 0hPa | 5.7V | 00:00:00 | 00:00:00 | 00:00:00 | |
| OM5KV | 2026-08-31 18:08:58 | 44.74410 | 20.99040 | 336° | 29km/h | 18084m | 4.2m/s | -58.2°C | 4.0% | 0hPa | 5.7V | 00:00:00 | 00:00:00 | 00:00:00 | |
| OM5KV | 2026-08-31 18:08:53 | 44.74365 | 20.99027 | 50° | 51km/h | 18054m | 9.1m/s | -58.0°C | 4.1% | 0hPa | 5.7V | 00:00:00 | 00:00:00 | 00:00:00 | |
| OM5KV | 2026-08-31 18:08:51 | 44.74351 | 20.98997 | 60° | 42km/h | 18043m | 3.7m/s | -58.3°C | 4.2% | 0hPa | 5.7V | 00:00:00 | 00:00:00 | 00:00:00 | |
| OM5KV | 2026-08-31 18:08:45 | 44.74329 | 20.98990 | 8° | 20km/h | 17997m | 5.7m/s | -58.5°C | 4.4% | 0hPa | 5.7V | 00:00:00 | 00:00:00 | 00:00:00 | |
| OM5KV | 2026-08-31 18:08:35 | 44.74296 | 20.98974 | 328° | 9km/h | 17940m | 5.6m/s | -58.2°C | 4.4% | 0hPa | 5.7V | 00:00:00 | 00:00:00 | 00:00:00 | |
| OE3JTB-15 | 2026-08-31 18:08:33 | 44.74293 | 20.98971 | 69° | 15km/h | 17930m | 4.9m/s | -57.2°C | 0% | 0hPa | 5.7V | 00:00:00 | 00:00:00 | 00:00:00 | |
| OM5KV | 2026-08-31 18:08:23 | 44.74275 | 20.98946 | 65° | 5km/h | 17874m | 5.7m/s | -57.9°C | 4.5% | 0hPa | 5.7V | 00:00:00 | 00:00:00 | 00:00:00 | |
| OM5KV | 2026-08-31 18:08:21 | 44.74272 | 20.98939 | 61° | 18km/h | 17863m | 4.8m/s | -58.0°C | 4.5% | 0hPa | 5.7V | 00:00:00 | 00:00:00 | 00:00:00 | |
| OM5KV | 2026-08-31 18:08:16 | 44.74261 | 20.98909 | 28° | 15km/h | 17836m | 5.0m/s | -57.9°C | 4.6% | 0hPa | 5.7V | 00:00:00 | 00:00:00 | 00:00:00 | |
| OM5KV | 2026-08-31 18:08:10 | 44.74249 | 20.98891 | 81° | 16km/h | 17803m | 5.1m/s | -57.7°C | 4.6% | 0hPa | 5.7V | 00:00:00 | 00:00:00 | 00:00:00 | |
| OM5KV | 2026-08-31 18:08:09 | 44.74249 | 20.98884 | 84° | 22km/h | 17797m | 6.6m/s | -57.7°C | 4.6% | 0hPa | 5.7V | 00:00:00 | 00:00:00 | 00:00:00 | |
| LZ4TU-5 | 2026-08-31 18:08:07 | 44.74247 | 20.98867 | 78° | 24km/h | 17787m | 5.5m/s | -57.7°C | 4.6% | 0hPa | 5.7V | 00:00:00 | 00:00:00 | 00:00:00 | |
| OE3JTB-15 | 2026-08-31 18:08:04 | 44.74239 | 20.98849 | 44° | 26km/h | 17769m | 5.6m/s | -56.8°C | 0% | 0hPa | 5.7V | 00:00:00 | 00:00:00 | 00:00:00 | |
| OM5KV | 2026-08-31 18:08:03 | 44.74236 | 20.98845 | 37° | 15km/h | 17764m | 5.0m/s | -57.6°C | 4.6% | 0hPa | 5.7V | 00:00:00 | 00:00:00 | 00:00:00 | |
| OM5KV | 2026-08-31 18:08:02 | 44.74232 | 20.98842 | 28° | 13km/h | 17758m | 6.0m/s | -57.6°C | 4.6% | 0hPa | 5.7V | 00:00:00 | 00:00:00 | 00:00:00 | |
| OM5KV | 2026-08-31 18:07:56 | 44.74228 | 20.98800 | 75° | 31km/h | 17725m | 4.8m/s | -57.6°C | 4.7% | 0hPa | 5.7V | 00:00:00 | 00:00:00 | 00:00:00 | |
| OM5KV | 2026-08-31 18:07:51 | 44.74210 | 20.98754 | 46° | 22km/h | 17698m | 6.3m/s | -57.6°C | 4.7% | 0hPa | 5.7V | 00:00:00 | 00:00:00 | 00:00:00 | |
| OM5KV | 2026-08-31 18:07:41 | 44.74190 | 20.98664 | 61° | 33km/h | 17642m | 4.5m/s | -57.5°C | 4.9% | 0hPa | 5.7V | 00:00:00 | 00:00:00 | 00:00:00 | |
| OM5KV | 2026-08-31 18:07:38 | 44.74181 | 20.98640 | 83° | 18km/h | 17625m | 5.6m/s | -57.5°C | 5.0% | 0hPa | 5.7V | 00:00:00 | 00:00:00 | 00:00:00 | |
| OM5KV | 2026-08-31 18:07:36 | 44.74183 | 20.98626 | 109° | 22km/h | 17613m | 5.6m/s | -57.6°C | 5.0% | 0hPa | 5.7V | 00:00:00 | 00:00:00 | 00:00:00 | |
| OE3JTB-15 | 2026-08-31 18:07:33 | 44.74183 | 20.98601 | 81° | 31km/h | 17596m | 6.4m/s | -56.7°C | 0% | 0hPa | 5.7V | 00:00:00 | 00:00:00 | 00:00:00 | |
| OM5KV | 2026-08-31 18:07:30 | 44.74174 | 20.98569 | 56° | 33km/h | 17579m | 5.3m/s | -57.5°C | 5.0% | 0hPa | 5.7V | 00:00:00 | 00:00:00 | 00:00:00 | |
| OM5KV | 2026-08-31 18:07:28 | 44.74167 | 20.98552 | 69° | 24km/h | 17568m | 6.3m/s | -57.5°C | 5.0% | 0hPa | 5.7V | 00:00:00 | 00:00:00 | 00:00:00 | |
| OM5KV | 2026-08-31 18:07:10 | 44.74151 | 20.98382 | 75° | 40km/h | 17469m | 6.6m/s | -57.6°C | 5.3% | 0hPa | 5.7V | 00:00:00 | 00:00:00 | 00:00:00 | |
| OM5KV | 2026-08-31 18:07:04 | 44.74124 | 20.98302 | 70° | 26km/h | 17438m | 6.1m/s | -57.5°C | 5.4% | 0hPa | 5.7V | 00:00:00 | 00:00:00 | 00:00:00 | |
| OE3JTB-15 | 2026-08-31 18:07:03 | 44.74122 | 20.98294 | 71° | 26km/h | 17432m | 5.1m/s | -56.6°C | 0% | 0hPa | 5.7V | 00:00:00 | 00:00:00 | 00:00:00 | |
| OM5KV | 2026-08-31 18:06:59 | 44.74119 | 20.98260 | 81° | 29km/h | 17413m | 5.2m/s | -57.4°C | 5.4% | 0hPa | 0V | 00:00:00 | 00:00:00 | 00:00:00 | |
| OM5KV | 2026-08-31 18:06:58 | 44.74117 | 20.98249 | 67° | 33km/h | 17406m | 6.9m/s | -57.4°C | 5.4% | 0hPa | 0V | 00:00:00 | 00:00:00 | 00:00:00 | |
| OM5KV | 2026-08-31 18:06:52 | 44.74095 | 20.98193 | 83° | 15km/h | 17374m | 6.1m/s | -57.3°C | 5.5% | 0hPa | 0V | 00:00:00 | 00:00:00 | 00:00:00 | |
| OM5KV | 2026-08-31 18:06:46 | 44.74097 | 20.98160 | 65° | 29km/h | 17342m | 6.4m/s | -57.2°C | 5.5% | 0hPa | 0V | 00:00:00 | 00:00:00 | 00:00:00 | |
| OM5KV | 2026-08-31 18:06:41 | 44.74075 | 20.98112 | 50° | 13km/h | 17316m | 6.1m/s | -57.3°C | 5.6% | 0hPa | 0V | 00:00:00 | 00:00:00 | 00:00:00 | |
| LZ4TU-5 | 2026-08-31 18:06:37 | 44.74077 | 20.98101 | 81° | 11km/h | 17294m | 5.5m/s | -57.4°C | 5.7% | 0hPa | 0V | 00:00:00 | 00:00:00 | 00:00:00 | |
| OM5KV | 2026-08-31 18:06:35 | 44.74072 | 20.98090 | 54° | 27km/h | 17282m | 7.4m/s | -57.5°C | 5.7% | 0hPa | 0V | 00:00:00 | 00:00:00 | 00:00:00 | |
| LZ4TU-5 | 2026-08-31 18:06:32 | 44.74055 | 20.98062 | 44° | 33km/h | 17264m | 4.4m/s | -57.5°C | 5.8% | 0hPa | 0V | 00:00:00 | 00:00:00 | 00:00:00 | |
| OM5KV | 2026-08-31 18:06:29 | 44.74046 | 20.98043 | 85° | 16km/h | 17249m | 7.9m/s | -57.6°C | 5.8% | 0hPa | 0V | 00:00:00 | 00:00:00 | 00:00:00 | |
| OM5KV | 2026-08-31 18:06:28 | 44.74047 | 20.98036 | 113° | 24km/h | 17241m | 6.9m/s | -57.6°C | 5.8% | 0hPa | 0V | 00:00:00 | 00:00:00 | 00:00:00 | |
| OM5KV | 2026-08-31 18:06:22 | 44.74043 | 20.97991 | 78° | 22km/h | 17207m | 5.7m/s | -57.8°C | 5.9% | 0hPa | 0V | 00:00:00 | 00:00:00 | 00:00:00 | |
| OM5KV | 2026-08-31 18:06:18 | 44.74043 | 20.97956 | 98° | 33km/h | 17184m | 6.8m/s | -57.8°C | 5.9% | 0hPa | 0V | 00:00:00 | 00:00:00 | 00:00:00 | |
| OM5KV | 2026-08-31 18:06:07 | 44.74042 | 20.97836 | 87° | 37km/h | 17125m | 6.2m/s | -58.3°C | 6.2% | 0hPa | 0V | 00:00:00 | 00:00:00 | 00:00:00 | |
| OM5KV | 2026-08-31 18:06:01 | 44.74036 | 20.97746 | 86° | 40km/h | 17091m | 5.2m/s | -58.7°C | 6.4% | 0hPa | 0V | 00:00:00 | 00:00:00 | 00:00:00 | |
| OM5KV | 2026-08-31 18:05:59 | 44.74034 | 20.97717 | 86° | 44km/h | 17080m | 6.2m/s | -58.8°C | 6.4% | 0hPa | 0V | 00:00:00 | 00:00:00 | 00:00:00 | |
| OM5KV | 2026-08-31 18:05:54 | 44.74033 | 20.97635 | 87° | 46km/h | 17055m | 4.9m/s | -59.1°C | 6.5% | 0hPa | 0V | 00:00:00 | 00:00:00 | 00:00:00 | |
| OM5KV | 2026-08-31 18:05:50 | 44.74021 | 20.97569 | 79° | 47km/h | 17033m | 4.9m/s | -59.4°C | 6.7% | 0hPa | 0V | 00:00:00 | 00:00:00 | 00:00:00 | |
| OM5KV | 2026-08-31 18:05:44 | 44.74023 | 20.97455 | 96° | 58km/h | 17000m | 5.3m/s | -59.7°C | 7.0% | 0hPa | 0V | 00:00:00 | 00:00:00 | 00:00:00 | |
| OM5KV | 2026-08-31 18:05:42 | 44.74022 | 20.97413 | 80° | 58km/h | 16989m | 5.0m/s | -59.6°C | 7.0% | 0hPa | 0V | 00:00:00 | 00:00:00 | 00:00:00 | |
| OM5KV | 2026-08-31 18:05:38 | 44.74008 | 20.97343 | 79° | 44km/h | 16968m | 5.0m/s | -59.6°C | 7.1% | 0hPa | 0V | 00:00:00 | 00:00:00 | 00:00:00 | |
| OM5KV | 2026-08-31 18:05:36 | 44.74004 | 20.97310 | 84° | 51km/h | 16957m | 5.2m/s | -59.6°C | 7.2% | 0hPa | 0V | 00:00:00 | 00:00:00 | 00:00:00 | |
| OM5KV | 2026-08-31 18:05:32 | 44.74000 | 20.97236 | 83° | 55km/h | 16934m | 6.3m/s | -59.4°C | 7.2% | 0hPa | 0V | 00:00:00 | 00:00:00 | 00:00:00 | |
| OM5KV | 2026-08-31 18:05:31 | 44.73998 | 20.97217 | 78° | 57km/h | 16929m | 5.0m/s | -59.4°C | 7.3% | 0hPa | 0V | 00:00:00 | 00:00:00 | 00:00:00 | |
| OM5KV | 2026-08-31 18:05:26 | 44.73980 | 20.97125 | 72° | 51km/h | 16901m | 5.5m/s | -59.2°C | 7.3% | 0hPa | 0V | 00:00:00 | 00:00:00 | 00:00:00 | |
| OM5KV | 2026-08-31 18:05:24 | 44.73972 | 20.97092 | 76° | 47km/h | 16890m | 5.6m/s | -59.3°C | 7.3% | 0hPa | 0V | 00:00:00 | 00:00:00 | 00:00:00 | |
| OM5KV | 2026-08-31 18:05:20 | 44.73961 | 20.97023 | 73° | 51km/h | 16869m | 5.7m/s | -59.2°C | 7.4% | 0hPa | 0V | 00:00:00 | 00:00:00 | 00:00:00 | |
| OM5KV | 2026-08-31 18:05:18 | 44.73953 | 20.96990 | 70° | 47km/h | 16857m | 5.6m/s | -59.2°C | 7.4% | 0hPa | 0V | 00:00:00 | 00:00:00 | 00:00:00 | |
| LZ4TU-5 | 2026-08-31 18:05:17 | 44.73948 | 20.96975 | 67° | 47km/h | 16851m | 6.4m/s | -59.2°C | 7.5% | 0hPa | 0V | 00:00:00 | 00:00:00 | 00:00:00 | |
| OM5KV | 2026-08-31 18:05:13 | 44.73931 | 20.96913 | 73° | 47km/h | 16828m | 5.8m/s | -59.4°C | 7.6% | 0hPa | 0V | 00:00:00 | 00:00:00 | 00:00:00 | |
| LZ4TU-5 | 2026-08-31 18:05:12 | 44.73927 | 20.96897 | 72° | 51km/h | 16823m | 5.4m/s | -59.5°C | 7.6% | 0hPa | 0V | 00:00:00 | 00:00:00 | 00:00:00 | |
| OM5KV | 2026-08-31 18:05:08 | 44.73911 | 20.96827 | 75° | 47km/h | 16802m | 5.5m/s | -59.4°C | 7.7% | 0hPa | 0V | 00:00:00 | 00:00:00 | 00:00:00 | |
| OM5KV | 2026-08-31 18:05:06 | 44.73902 | 20.96795 | 64° | 49km/h | 16791m | 5.6m/s | -59.3°C | 7.7% | 0hPa | 0V | 00:00:00 | 00:00:00 | 00:00:00 | |
| OM5KV | 2026-08-31 18:05:00 | 44.73860 | 20.96706 | 59° | 49km/h | 16758m | 4.9m/s | -59.3°C | 7.8% | 0hPa | 0V | 00:00:00 | 00:00:00 | 00:00:00 | |
| OM5KV | 2026-08-31 18:04:54 | 44.73836 | 20.96610 | 71° | 55km/h | 16726m | 5.1m/s | -59.3°C | 7.9% | 0hPa | 0V | 00:00:00 | 00:00:00 | 00:00:00 | |
| OM5KV | 2026-08-31 18:04:49 | 44.73813 | 20.96529 | 64° | 47km/h | 16699m | 5.1m/s | -59.4°C | 7.9% | 0hPa | 0V | 00:00:00 | 00:00:00 | 00:00:00 | |
| OM5KV | 2026-08-31 18:04:48 | 44.73807 | 20.96515 | 60° | 46km/h | 16693m | 5.9m/s | -59.4°C | 7.9% | 0hPa | 0V | 00:00:00 | 00:00:00 | 00:00:00 | |
| OM5KV | 2026-08-31 18:04:43 | 44.73782 | 20.96436 | 68° | 53km/h | 16667m | 5.7m/s | -59.3°C | 7.9% | 0hPa | 0V | 00:00:00 | 00:00:00 | 00:00:00 | |
| OM5KV | 2026-08-31 18:04:34 | 44.73731 | 20.96284 | 71° | 58km/h | 16619m | 4.6m/s | -59.3°C | 7.9% | 0hPa | 0V | 00:00:00 | 00:00:00 | 00:00:00 | |
| OM5KV | 2026-08-31 18:04:33 | 44.73726 | 20.96264 | 71° | 58km/h | 16614m | 5.7m/s | -59.5°C | 8.0% | 0hPa | 0V | 00:00:00 | 00:00:00 | 00:00:00 | |
| OM5KV | 2026-08-31 18:04:26 | 44.73677 | 20.96147 | 57° | 55km/h | 16578m | 4.6m/s | -60.5°C | 8.4% | 0hPa | 0V | 00:00:00 | 00:00:00 | 00:00:00 | |
| OM5KV | 2026-08-31 18:04:17 | 44.73608 | 20.95989 | 51° | 53km/h | 16529m | 4.0m/s | -61.5°C | 8.8% | 0hPa | 0V | 00:00:00 | 00:00:00 | 00:00:00 | |
| OM5KV | 2026-08-31 18:04:11 | 44.73560 | 20.95881 | 58° | 60km/h | 16499m | 5.6m/s | -61.9°C | 9.0% | 0hPa | 0V | 00:00:00 | 00:00:00 | 00:00:00 | |
| OM5KV | 2026-08-31 18:04:06 | 44.73518 | 20.95811 | 42° | 51km/h | 16471m | 4.9m/s | -61.8°C | 9.0% | 0hPa | 0V | 00:00:00 | 00:00:00 | 00:00:00 | |
| OM5KV | 2026-08-31 18:03:59 | 44.73461 | 20.95703 | 55° | 49km/h | 16434m | 7.3m/s | -61.7°C | 9.1% | 0hPa | 0V | 00:00:00 | 00:00:00 | 00:00:00 | |
| OM5KV | 2026-08-31 18:03:58 | 44.73454 | 20.95690 | 53° | 44km/h | 16428m | 5.0m/s | -61.7°C | 9.1% | 0hPa | 0V | 00:00:00 | 00:00:00 | 00:00:00 | |
| LZ4TU-5 | 2026-08-31 18:03:53 | 44.73417 | 20.95638 | 47° | 37km/h | 16397m | 3.8m/s | -61.5°C | 9.2% | 0hPa | 0V | 00:00:00 | 00:00:00 | 00:00:00 | |
| OM5KV | 2026-08-31 18:03:52 | 44.73410 | 20.95628 | 49° | 38km/h | 16389m | 8.7m/s | -61.4°C | 9.2% | 0hPa | 0V | 00:00:00 | 00:00:00 | 00:00:00 | |
| OM5KV | 2026-08-31 18:03:43 | 44.73353 | 20.95524 | 65° | 37km/h | 16334m | 4.3m/s | -61.6°C | 9.3% | 0hPa | 0V | 00:00:00 | 00:00:00 | 00:00:00 | |
| OM5KV | 2026-08-31 18:03:38 | 44.73332 | 20.95463 | 57° | 40km/h | 16307m | 5.6m/s | -61.7°C | 9.4% | 0hPa | 0V | 00:00:00 | 00:00:00 | 00:00:00 | |
| OM5KV | 2026-08-31 18:03:32 | 44.73307 | 20.95407 | 81° | 37km/h | 16274m | 5.0m/s | -61.8°C | 9.6% | 0hPa | 0V | 00:00:00 | 00:00:00 | 00:00:00 | |
| OM5KV | 2026-08-31 18:03:21 | 44.73290 | 20.95279 | 91° | 38km/h | 16212m | 6.0m/s | -62.2°C | 10.0% | 0hPa | 0V | 00:00:00 | 00:00:00 | 00:00:00 | |
| OM5KV | 2026-08-31 18:03:18 | 44.73295 | 20.95243 | 112° | 33km/h | 16196m | 4.7m/s | -62.4°C | 10.1% | 0hPa | 0V | 00:00:00 | 00:00:00 | 00:00:00 | |
| OM5KV | 2026-08-31 18:03:13 | 44.73306 | 20.95182 | 108° | 33km/h | 16170m | 4.9m/s | -62.3°C | 10.2% | 0hPa | 0V | 00:00:00 | 00:00:00 | 00:00:00 | |
| OM5KV | 2026-08-31 18:03:06 | 44.73332 | 20.95108 | 113° | 38km/h | 16134m | 4.4m/s | -62.1°C | 10.3% | 0hPa | 0V | 00:00:00 | 00:00:00 | 00:00:00 | |
| OM5KV | 2026-08-31 18:03:03 | 44.73342 | 20.95072 | 113° | 31km/h | 16119m | 4.7m/s | -62.1°C | 10.3% | 0hPa | 0V | 00:00:00 | 00:00:00 | 00:00:00 | |
| OM5KV | 2026-08-31 18:02:50 | 44.73390 | 20.94903 | 103° | 37km/h | 16046m | 5.1m/s | -61.8°C | 10.7% | 0hPa | 0V | 00:00:00 | 00:00:00 | 00:00:00 | |
| OM5KV | 2026-08-31 18:02:44 | 44.73412 | 20.94831 | 107° | 49km/h | 16020m | 4.6m/s | -61.7°C | 10.7% | 0hPa | 0V | 00:00:00 | 00:00:00 | 00:00:00 | |
| LZ4TU-5 | 2026-08-31 18:02:38 | 44.73415 | 20.94749 | 90° | 33km/h | 15989m | 5.0m/s | -61.7°C | 10.9% | 0hPa | 0V | 00:00:00 | 00:00:00 | 00:00:00 | |
| LZ4TU-5 | 2026-08-31 18:02:34 | 44.73425 | 20.94689 | 107° | 55km/h | 15968m | 5.9m/s | -61.7°C | 11.0% | 0hPa | 0V | 00:00:00 | 00:00:00 | 00:00:00 | |
| OM5KV | 2026-08-31 18:02:32 | 44.73433 | 20.94653 | 107° | 49km/h | 15956m | 4.8m/s | -61.7°C | 11.1% | 0hPa | 0V | 00:00:00 | 00:00:00 | 00:00:00 | |
| OM5KV | 2026-08-31 18:02:27 | 44.73434 | 20.94573 | 84° | 44km/h | 15929m | 5.4m/s | -61.7°C | 11.2% | 0hPa | 0V | 00:00:00 | 00:00:00 | 00:00:00 | |
| OM5KV | 2026-08-31 18:02:25 | 44.73433 | 20.94541 | 92° | 49km/h | 15919m | 5.3m/s | -61.7°C | 11.2% | 0hPa | 0V | 00:00:00 | 00:00:00 | 00:00:00 | |
| OM5KV | 2026-08-31 18:02:19 | 44.73440 | 20.94429 | 93° | 53km/h | 15889m | 5.6m/s | -61.8°C | 11.5% | 0hPa | 0V | 00:00:00 | 00:00:00 | 00:00:00 | |
| OM5KV | 2026-08-31 18:02:13 | 44.73430 | 20.94318 | 86° | 51km/h | 15858m | 5.3m/s | -61.7°C | 11.6% | 0hPa | 0V | 00:00:00 | 00:00:00 | 00:00:00 | |
| OM5KV | 2026-08-31 18:02:07 | 44.73435 | 20.94208 | 94° | 53km/h | 15826m | 4.8m/s | -61.6°C | 11.7% | 0hPa | 0V | 00:00:00 | 00:00:00 | 00:00:00 | |
| OM5KV | 2026-08-31 18:02:01 | 44.73442 | 20.94097 | 101° | 57km/h | 15794m | 6.3m/s | -61.6°C | 11.9% | 0hPa | 0V | 00:00:00 | 00:00:00 | 00:00:00 | |
| OM5KV | 2026-08-31 18:01:56 | 44.73457 | 20.93999 | 101° | 53km/h | 15767m | 6.3m/s | -61.6°C | 11.9% | 0hPa | 0V | 00:00:00 | 00:00:00 | 00:00:00 | |
| OM5KV | 2026-08-31 18:01:23 | 44.73568 | 20.93377 | 98° | 46km/h | 15584m | 6.2m/s | -62.3°C | 12.2% | 0hPa | 0V | 00:00:00 | 00:00:00 | 00:00:00 | |
| LZ4TU-5 | 2026-08-31 18:01:19 | 44.73574 | 20.93309 | 101° | 51km/h | 15561m | 4.8m/s | -62.4°C | 12.3% | 0hPa | 0V | 00:00:00 | 00:00:00 | 00:00:00 | |
| LZ4TU-5 | 2026-08-31 18:01:14 | 44.73574 | 20.93219 | 86° | 46km/h | 15534m | 5.8m/s | -62.6°C | 12.3% | 0hPa | 0V | 00:00:00 | 00:00:00 | 00:00:00 | |
| OM5KV | 2026-08-31 18:01:04 | 44.73576 | 20.93032 | 83° | 53km/h | 15474m | 4.8m/s | -63.1°C | 12.4% | 0hPa | 0V | 00:00:00 | 00:00:00 | 00:00:00 | |
| OM5KV | 2026-08-31 18:00:33 | 44.73525 | 20.92430 | 77° | 49km/h | 15295m | 5.6m/s | -62.8°C | 12.8% | 0hPa | 0V | 00:00:00 | 00:00:00 | 00:00:00 | |
| OM5KV | 2026-08-31 18:00:28 | 44.73516 | 20.92341 | 84° | 51km/h | 15266m | 5.7m/s | -62.6°C | 13.0% | 0hPa | 0V | 00:00:00 | 00:00:00 | 00:00:00 | |
| OM5KV | 2026-08-31 18:00:23 | 44.73497 | 20.92252 | 69° | 49km/h | 15237m | 5.2m/s | -62.5°C | 13.1% | 0hPa | 0V | 00:00:00 | 00:00:00 | 00:00:00 | |
| OM5KV | 2026-08-31 18:00:21 | 44.73488 | 20.92220 | 69° | 51km/h | 15225m | 5.2m/s | -62.4°C | 13.1% | 0hPa | 0V | 00:00:00 | 00:00:00 | 00:00:00 | |
| OM5KV | 2026-08-31 18:00:16 | 44.73472 | 20.92136 | 77° | 53km/h | 15197m | 5.1m/s | -62.4°C | 13.3% | 0hPa | 0V | 00:00:00 | 00:00:00 | 00:00:00 | |
| OM5KV | 2026-08-31 18:00:10 | 44.73449 | 20.92034 | 72° | 49km/h | 15164m | 5.5m/s | -62.3°C | 13.5% | 0hPa | 0V | 00:00:00 | 00:00:00 | 00:00:00 | |
| OM5KV | 2026-08-31 18:00:09 | 44.73446 | 20.92018 | 75° | 47km/h | 15158m | 5.4m/s | -62.2°C | 13.6% | 0hPa | 0V | 00:00:00 | 00:00:00 | 00:00:00 | |
| OM5KV | 2026-08-31 18:00:03 | 44.73415 | 20.91920 | 64° | 51km/h | 15124m | 4.6m/s | -62.1°C | 13.7% | 0hPa | 0V | 00:00:00 | 00:00:00 | 00:00:00 | |
| OM5KV | 2026-08-31 17:59:59 | 44.73394 | 20.91848 | 77° | 53km/h | 15102m | 6.0m/s | -62.0°C | 13.9% | 0hPa | 0V | 00:00:00 | 00:00:00 | 00:00:00 | |
| OM5KV | 2026-08-31 17:59:57 | 44.73388 | 20.91814 | 68° | 46km/h | 15089m | 5.9m/s | -61.9°C | 14.0% | 0hPa | 0V | 00:00:00 | 00:00:00 | 00:00:00 | |
| OM5KV | 2026-08-31 17:59:53 | 44.73364 | 20.91767 | 60° | 42km/h | 15068m | 4.4m/s | -61.7°C | 14.2% | 0hPa | 0V | 00:00:00 | 00:00:00 | 00:00:00 | |
| OM5KV | 2026-08-31 17:59:51 | 44.73352 | 20.91736 | 64° | 55km/h | 15056m | 6.3m/s | -61.6°C | 14.2% | 0hPa | 0V | 00:00:00 | 00:00:00 | 00:00:00 | |
| LZ4TU-5 | 2026-08-31 17:59:46 | 44.73336 | 20.91653 | 96° | 40km/h | 15026m | 5.3m/s | -61.3°C | 14.5% | 0hPa | 0V | 00:00:00 | 00:00:00 | 00:00:00 | |
| OM5KV | 2026-08-31 17:59:45 | 44.73337 | 20.91640 | 89° | 37km/h | 15020m | 6.0m/s | -61.3°C | 14.5% | 0hPa | 0V | 00:00:00 | 00:00:00 | 00:00:00 | |
| OM5KV | 2026-08-31 17:59:43 | 44.73330 | 20.91617 | 54° | 40km/h | 15009m | 5.6m/s | -61.2°C | 14.7% | 0hPa | 0V | 00:00:00 | 00:00:00 | 00:00:00 | |
| OM5KV | 2026-08-31 17:59:38 | 44.73298 | 20.91558 | 64° | 35km/h | 14981m | 6.2m/s | -61.0°C | 14.9% | 0hPa | 0V | 00:00:00 | 00:00:00 | 00:00:00 | |
| OM5KV | 2026-08-31 17:59:37 | 44.73295 | 20.91547 | 68° | 33km/h | 14974m | 5.9m/s | -60.9°C | 15.0% | 0hPa | 0V | 00:00:00 | 00:00:00 | 00:00:00 | |
| OM5KV | 2026-08-31 17:59:31 | 44.73277 | 20.91472 | 49° | 51km/h | 14941m | 4.5m/s | -60.7°C | 15.2% | 0hPa | 0V | 00:00:00 | 00:00:00 | 00:00:00 | |
| OM5KV | 2026-08-31 17:59:25 | 44.73243 | 20.91395 | 88° | 33km/h | 14913m | 4.3m/s | -60.5°C | 15.5% | 0hPa | 0V | 00:00:00 | 00:00:00 | 00:00:00 | |
| OM5KV | 2026-08-31 17:59:20 | 44.73233 | 20.91330 | 68° | 47km/h | 14885m | 5.5m/s | -60.3°C | 15.8% | 0hPa | 0V | 00:00:00 | 00:00:00 | 00:00:00 | |
| OM5KV | 2026-08-31 17:59:19 | 44.73228 | 20.91315 | 67° | 47km/h | 14880m | 3.8m/s | -60.3°C | 15.8% | 0hPa | 0V | 00:00:00 | 00:00:00 | 00:00:00 | |
| OM5KV | 2026-08-31 17:59:15 | 44.73206 | 20.91268 | 83° | 26km/h | 14862m | 4.9m/s | -60.3°C | 16.1% | 0hPa | 0V | 00:00:00 | 00:00:00 | 00:00:00 | |
| OM5KV | 2026-08-31 17:59:14 | 44.73205 | 20.91259 | 83° | 24km/h | 14857m | 5.5m/s | -60.3°C | 16.2% | 0hPa | 0V | 00:00:00 | 00:00:00 | 00:00:00 | |
| OM5KV | 2026-08-31 17:59:07 | 44.73197 | 20.91164 | 71° | 47km/h | 14821m | 6.0m/s | -60.3°C | 16.6% | 0hPa | 0V | 00:00:00 | 00:00:00 | 00:00:00 | |
| OM5KV | 2026-08-31 17:59:02 | 44.73184 | 20.91092 | 88° | 38km/h | 14795m | 5.6m/s | -60.5°C | 16.9% | 0hPa | 0V | 00:00:00 | 00:00:00 | 00:00:00 | |
| OM5KV | 2026-08-31 17:58:54 | 44.73175 | 20.90956 | 80° | 47km/h | 14755m | 4.0m/s | -60.8°C | 17.5% | 0hPa | 0V | 00:00:00 | 00:00:00 | 00:00:00 | |
| OM5KV | 2026-08-31 17:58:48 | 44.73175 | 20.90855 | 86° | 53km/h | 14726m | 4.2m/s | -61.2°C | 18.1% | 0hPa | 0V | 00:00:00 | 00:00:00 | 00:00:00 | |
| OM5KV | 2026-08-31 17:58:42 | 44.73167 | 20.90714 | 87° | 68km/h | 14697m | 5.0m/s | -61.3°C | 18.5% | 0hPa | 0V | 00:00:00 | 00:00:00 | 00:00:00 | |
| OM5KV | 2026-08-31 17:58:37 | 44.73165 | 20.90606 | 89° | 62km/h | 14673m | 4.8m/s | -61.3°C | 19.0% | 0hPa | 0V | 00:00:00 | 00:00:00 | 00:00:00 | |
| OM5KV | 2026-08-31 17:58:36 | 44.73164 | 20.90583 | 89° | 68km/h | 14669m | 4.2m/s | -61.3°C | 19.1% | 0hPa | 0V | 00:00:00 | 00:00:00 | 00:00:00 | |
| LZ4TU-5 | 2026-08-31 17:58:31 | 44.73156 | 20.90464 | 88° | 64km/h | 14646m | 3.7m/s | -61.5°C | 19.5% | 0hPa | 0V | 00:00:00 | 00:00:00 | 00:00:00 | |
| OM5KV | 2026-08-31 17:58:30 | 44.73154 | 20.90441 | 87° | 64km/h | 14641m | 4.8m/s | -61.5°C | 19.5% | 0hPa | 0V | 00:00:00 | 00:00:00 | 00:00:00 | |
| LZ4TU-5 | 2026-08-31 17:58:27 | 44.73150 | 20.90371 | 87° | 68km/h | 14627m | 4.9m/s | -61.5°C | 19.7% | 0hPa | 0V | 00:00:00 | 00:00:00 | 00:00:00 | |
| OM5KV | 2026-08-31 17:58:25 | 44.73147 | 20.90322 | 83° | 71km/h | 14618m | 5.0m/s | -61.4°C | 19.8% | 0hPa | 0V | 00:00:00 | 00:00:00 | 00:00:00 | |
| OM5KV | 2026-08-31 17:58:24 | 44.73145 | 20.90296 | 80° | 73km/h | 14614m | 4.1m/s | -61.4°C | 19.9% | 0hPa | 0V | 00:00:00 | 00:00:00 | 00:00:00 | |
| OM5KV | 2026-08-31 17:58:19 | 44.73129 | 20.90177 | 83° | 62km/h | 14592m | 4.4m/s | -61.3°C | 20.1% | 0hPa | 0V | 00:00:00 | 00:00:00 | 00:00:00 | |
| OM5KV | 2026-08-31 17:58:18 | 44.73127 | 20.90155 | 84° | 62km/h | 14588m | 4.0m/s | -61.2°C | 20.2% | 0hPa | 0V | 00:00:00 | 00:00:00 | 00:00:00 | |
| OM5KV | 2026-08-31 17:58:12 | 44.73117 | 20.90023 | 79° | 64km/h | 14560m | 5.0m/s | -61.1°C | 20.5% | 0hPa | 0V | 00:00:00 | 00:00:00 | 00:00:00 | |
| OM5KV | 2026-08-31 17:58:11 | 44.73114 | 20.90001 | 81° | 64km/h | 14555m | 4.2m/s | -61.1°C | 20.5% | 0hPa | 0V | 00:00:00 | 00:00:00 | 00:00:00 | |
| OM5KV | 2026-08-31 17:58:03 | 44.73096 | 20.89832 | 84° | 57km/h | 14519m | 4.2m/s | -61.2°C | 21.1% | 0hPa | 0V | 00:00:00 | 00:00:00 | 00:00:00 | |
| OM5KV | 2026-08-31 17:57:56 | 44.73080 | 20.89681 | 90° | 57km/h | 14486m | 4.0m/s | -61.1°C | 21.4% | 0hPa | 0V | 00:00:00 | 00:00:00 | 00:00:00 | |
| OM5KV | 2026-08-31 17:57:55 | 44.73080 | 20.89662 | 91° | 55km/h | 14482m | 5.1m/s | -61.1°C | 21.5% | 0hPa | 0V | 00:00:00 | 00:00:00 | 00:00:00 | |
| OM5KV | 2026-08-31 17:57:51 | 44.73079 | 20.89579 | 91° | 66km/h | 14464m | 4.6m/s | -61.1°C | 21.7% | 0hPa | 0V | 00:00:00 | 00:00:00 | 00:00:00 | |
| OM5KV | 2026-08-31 17:57:50 | 44.73079 | 20.89556 | 90° | 66km/h | 14459m | 5.3m/s | -61.1°C | 21.8% | 0hPa | 0V | 00:00:00 | 00:00:00 | 00:00:00 | |
| OM5KV | 2026-08-31 17:57:46 | 44.73076 | 20.89464 | 88° | 64km/h | 14441m | 3.4m/s | -61.3°C | 22.1% | 0hPa | 0V | 00:00:00 | 00:00:00 | 00:00:00 | |
| OM5KV | 2026-08-31 17:57:45 | 44.73075 | 20.89442 | 86° | 62km/h | 14438m | 4.4m/s | -61.3°C | 22.1% | 0hPa | 0V | 00:00:00 | 00:00:00 | 00:00:00 | |
| OM5KV | 2026-08-31 17:57:40 | 44.73066 | 20.89331 | 93° | 68km/h | 14415m | 4.5m/s | -61.4°C | 22.4% | 0hPa | 0V | 00:00:00 | 00:00:00 | 00:00:00 | |
| OM5KV | 2026-08-31 17:57:39 | 44.73067 | 20.89307 | 97° | 66km/h | 14410m | 5.8m/s | -61.4°C | 22.4% | 0hPa | 0V | 00:00:00 | 00:00:00 | 00:00:00 | |
| OM5KV | 2026-08-31 17:57:34 | 44.73072 | 20.89203 | 82° | 58km/h | 14384m | 5.7m/s | -61.8°C | 22.8% | 0hPa | 0V | 00:00:00 | 00:00:00 | 00:00:00 | |
| OM5KV | 2026-08-31 17:57:28 | 44.73065 | 20.89086 | 88° | 55km/h | 14354m | 4.4m/s | -61.8°C | 23.1% | 0hPa | 0V | 00:00:00 | 00:00:00 | 00:00:00 | |
| OM5KV | 2026-08-31 17:57:21 | 44.73040 | 20.88929 | 73° | 62km/h | 14320m | 5.3m/s | -62.0°C | 23.4% | 0hPa | 0V | 00:00:00 | 00:00:00 | 00:00:00 | |
| OM5KV | 2026-08-31 17:57:19 | 44.73035 | 20.88889 | 85° | 49km/h | 14310m | 5.4m/s | -61.9°C | 23.4% | 0hPa | 0V | 00:00:00 | 00:00:00 | 00:00:00 | |
| OM5KV | 2026-08-31 17:57:16 | 44.73033 | 20.88834 | 85° | 60km/h | 14299m | 4.8m/s | -61.9°C | 23.6% | 0hPa | 0V | 00:00:00 | 00:00:00 | 00:00:00 | |
| LZ4TU-5 | 2026-08-31 17:57:10 | 44.72997 | 20.88676 | 65° | 66km/h | 14270m | 6.6m/s | -61.8°C | 23.9% | 0hPa | 0V | 00:00:00 | 00:00:00 | 00:00:00 | |
| LZ4TU-5 | 2026-08-31 17:57:06 | 44.72980 | 20.88587 | 77° | 51km/h | 14243m | 4.9m/s | -61.6°C | 24.1% | 0hPa | 0V | 00:00:00 | 00:00:00 | 00:00:00 | |
| OM5KV | 2026-08-31 17:57:05 | 44.72980 | 20.88587 | 77° | 51km/h | 14243m | 4.9m/s | -61.6°C | 24.1% | 0hPa | 0V | 00:00:00 | 00:00:00 | 00:00:00 | |
| OM5KV | 2026-08-31 17:56:54 | 44.72918 | 20.88368 | 84° | 42km/h | 14181m | 6.7m/s | -61.2°C | 24.6% | 0hPa | 0V | 00:00:00 | 00:00:00 | 00:00:00 | |
| OM5KV | 2026-08-31 17:56:49 | 44.72891 | 20.88298 | 61° | 68km/h | 14153m | 7.0m/s | -61.0°C | 24.8% | 0hPa | 0V | 00:00:00 | 00:00:00 | 00:00:00 | |
| OM5KV | 2026-08-31 17:56:47 | 44.72875 | 20.88242 | 77° | 93km/h | 14146m | 2.8m/s | -60.9°C | 25.0% | 0hPa | 0V | 00:00:00 | 00:00:00 | 00:00:00 | |
| OM5KV | 2026-08-31 17:56:35 | 44.72854 | 20.88008 | 76° | 53km/h | 14050m | 4.8m/s | -61.1°C | 26.1% | 0hPa | 0V | 00:00:00 | 00:00:00 | 00:00:00 | |
| OM5KV | 2026-08-31 17:56:29 | 44.72845 | 20.87890 | 86° | 53km/h | 14019m | 5.3m/s | -61.1°C | 26.5% | 0hPa | 0V | 00:00:00 | 00:00:00 | 00:00:00 | |
| OM5KV | 2026-08-31 17:56:27 | 44.72841 | 20.87849 | 81° | 62km/h | 14009m | 5.3m/s | -61.1°C | 26.7% | 0hPa | 0V | 00:00:00 | 00:00:00 | 00:00:00 | |
| OM5KV | 2026-08-31 17:56:24 | 44.72830 | 20.87787 | 75° | 57km/h | 13992m | 5.6m/s | -61.0°C | 26.9% | 0hPa | 0V | 00:00:00 | 00:00:00 | 00:00:00 | |
| OM5KV | 2026-08-31 17:56:22 | 44.72824 | 20.87747 | 83° | 57km/h | 13982m | 5.1m/s | -61.0°C | 27.1% | 0hPa | 0V | 00:00:00 | 00:00:00 | 00:00:00 | |
| OM5KV | 2026-08-31 17:56:16 | 44.72827 | 20.87626 | 88° | 71km/h | 13955m | 5.5m/s | -60.9°C | 27.5% | 0hPa | 0V | 00:00:00 | 00:00:00 | 00:00:00 | |
| OM5KV | 2026-08-31 17:56:10 | 44.72812 | 20.87507 | 84° | 35km/h | 13921m | 4.0m/s | -60.7°C | 28.1% | 0hPa | 0V | 00:00:00 | 00:00:00 | 00:00:00 | |
| OM5KV | 2026-08-31 17:56:01 | 44.72810 | 20.87338 | 70° | 46km/h | 13864m | 7.3m/s | -60.3°C | 29.1% | 0hPa | 0V | 00:00:00 | 00:00:00 | 00:00:00 | |
| OM5KV | 2026-08-31 17:55:55 | 44.72812 | 20.87242 | 107° | 60km/h | 13814m | 10.5m/s | -60.2°C | 29.9% | 0hPa | 0V | 00:00:00 | 00:00:00 | 00:00:00 | |
| OM5KV | 2026-08-31 17:55:54 | 44.72817 | 20.87220 | 104° | 64km/h | 13805m | 7.8m/s | -60.2°C | 30.0% | 0hPa | 0V | 00:00:00 | 00:00:00 | 00:00:00 | |
| OM5KV | 2026-08-31 17:55:49 | 44.72831 | 20.87125 | 102° | 47km/h | 13771m | 7.4m/s | -60.2°C | 30.5% | 0hPa | 0V | 00:00:00 | 00:00:00 | 00:00:00 | |
| LZ4TU-5 | 2026-08-31 17:55:48 | 44.72834 | 20.87108 | 104° | 47km/h | 13764m | 6.3m/s | -60.2°C | 30.6% | 0hPa | 0V | 00:00:00 | 00:00:00 | 00:00:00 | |
| OM5KV | 2026-08-31 17:55:46 | 44.72840 | 20.87073 | 111° | 60km/h | 13751m | 6.6m/s | -60.3°C | 30.8% | 0hPa | 0V | 00:00:00 | 00:00:00 | 00:00:00 | |
| OM5KV | 2026-08-31 17:55:43 | 44.72859 | 20.87011 | 117° | 68km/h | 13732m | 5.3m/s | -60.5°C | 31.2% | 0hPa | 0V | 00:00:00 | 00:00:00 | 00:00:00 | |
| OM5KV | 2026-08-31 17:55:40 | 44.72875 | 20.86951 | 101° | 53km/h | 13715m | 5.9m/s | -60.5°C | 31.5% | 0hPa | 0V | 00:00:00 | 00:00:00 | 00:00:00 | |
| OM5KV | 2026-08-31 17:55:35 | 44.72889 | 20.86852 | 102° | 66km/h | 13686m | 6.9m/s | -60.4°C | 31.9% | 0hPa | 0V | 00:00:00 | 00:00:00 | 00:00:00 | |
| OM5KV | 2026-08-31 17:55:30 | 44.72918 | 20.86723 | 113° | 66km/h | 13660m | 5.3m/s | -60.4°C | 32.4% | 0hPa | 0V | 00:00:00 | 00:00:00 | 00:00:00 | |
| OM5KV | 2026-08-31 17:55:22 | 44.72954 | 20.86530 | 105° | 68km/h | 13613m | 7.0m/s | -60.5°C | 33.3% | 0hPa | 0V | 00:00:00 | 00:00:00 | 00:00:00 | |
| OM5KV | 2026-08-31 17:55:17 | 44.72975 | 20.86406 | 107° | 78km/h | 13583m | 5.9m/s | -60.6°C | 33.9% | 0hPa | 0V | 00:00:00 | 00:00:00 | 00:00:00 | |
| OM5KV | 2026-08-31 17:55:11 | 44.73001 | 20.86240 | 100° | 66km/h | 13546m | 6.8m/s | -60.6°C | 34.6% | 0hPa | 0V | 00:00:00 | 00:00:00 | 00:00:00 | |
| OM5KV | 2026-08-31 17:55:04 | 44.73025 | 20.86073 | 103° | 73km/h | 13507m | 4.8m/s | -60.7°C | 35.4% | 0hPa | 0V | 00:00:00 | 00:00:00 | 00:00:00 | |
| OM5KV | 2026-08-31 17:54:56 | 44.73060 | 20.85875 | 102° | 71km/h | 13459m | 8.1m/s | -60.9°C | 36.6% | 0hPa | 0V | 00:00:00 | 00:00:00 | 00:00:00 | |
| OM5KV | 2026-08-31 17:54:49 | 44.73083 | 20.85699 | 103° | 66km/h | 13411m | 5.7m/s | -61.1°C | 37.6% | 0hPa | 0V | 00:00:00 | 00:00:00 | 00:00:00 | |
| LZ4TU-5 | 2026-08-31 17:54:34 | 44.73131 | 20.85333 | 97° | 71km/h | 13320m | 7.1m/s | -60.7°C | 38.9% | 0hPa | 0V | 00:00:00 | 00:00:00 | 00:00:00 | |
| LZ4TU-5 | 2026-08-31 17:54:29 | 44.73151 | 20.85224 | 106° | 68km/h | 13290m | 5.7m/s | -60.7°C | 39.4% | 0hPa | 0V | 00:00:00 | 00:00:00 | 00:00:00 | |
| LZ4TU-5 | 2026-08-31 17:53:14 | 44.73660 | 20.83173 | 106° | 104km/h | 12880m | 4.3m/s | -59.6°C | 46.7% | 0hPa | 0V | 00:00:00 | 00:00:00 | 00:00:00 | |
| LZ4TU-5 | 2026-08-31 17:53:10 | 44.73687 | 20.83051 | 118° | 86km/h | 12862m | 5.1m/s | -59.6°C | 47.3% | 0hPa | 0V | 00:00:00 | 00:00:00 | 00:00:00 | |
| LZ4TU-5 | 2026-08-31 17:51:57 | 44.74293 | 20.80399 | 109° | 111km/h | 12439m | 5.3m/s | -57.6°C | 46.4% | 0hPa | 0V | 00:00:00 | 00:00:00 | 00:00:00 | |
| LZ4TU-5 | 2026-08-31 17:51:52 | 44.74330 | 20.80210 | 106° | 113km/h | 12411m | 6.1m/s | -57.5°C | 46.0% | 0hPa | 0V | 00:00:00 | 00:00:00 | 00:00:00 | |
| LZ4TU-5 | 2026-08-31 17:50:32 | 44.74863 | 20.77239 | 98° | 106km/h | 11929m | 5.6m/s | -53.9°C | 41.2% | 0hPa | 0V | 00:00:00 | 00:00:00 | 00:00:00 | |
| LZ4TU-5 | 2026-08-31 17:50:27 | 44.74887 | 20.77058 | 105° | 108km/h | 11901m | 6.2m/s | -53.6°C | 41.0% | 0hPa | 0V | 00:00:00 | 00:00:00 | 00:00:00 | |
| LZ4TU-5 | 2026-08-31 17:49:13 | 44.75310 | 20.74363 | 102° | 111km/h | 11459m | 5.7m/s | -50.2°C | 38.1% | 0hPa | 0V | 00:00:00 | 00:00:00 | 00:00:00 | |
| LZ4TU-5 | 2026-08-31 17:49:09 | 44.75328 | 20.74214 | 103° | 104km/h | 11436m | 6.2m/s | -50.0°C | 38.2% | 0hPa | 0V | 00:00:00 | 00:00:00 | 00:00:00 | |
| LZ4TU-5 | 2026-08-31 17:47:54 | 44.75748 | 20.71497 | 101° | 110km/h | 11043m | 6.7m/s | -47.0°C | 39.2% | 0hPa | 0V | 00:00:00 | 00:00:00 | 00:00:00 | |
| LZ4TU-5 | 2026-08-31 17:47:50 | 44.75767 | 20.71344 | 97° | 100km/h | 11020m | 5.3m/s | -46.9°C | 39.7% | 0hPa | 0V | 00:00:00 | 00:00:00 | 00:00:00 | |
| LZ4TU-5 | 2026-08-31 17:46:36 | 44.76114 | 20.68801 | 105° | 99km/h | 10562m | 6.3m/s | -43.6°C | 37.9% | 0hPa | 0V | 00:00:00 | 00:00:00 | 00:00:00 | |
| LZ4TU-5 | 2026-08-31 17:46:31 | 44.76158 | 20.68622 | 106° | 108km/h | 10532m | 6.6m/s | -43.3°C | 37.3% | 0hPa | 0V | 00:00:00 | 00:00:00 | 00:00:00 | |
| LZ4TU-5 | 2026-08-31 17:45:17 | 44.76379 | 20.66099 | 105° | 100km/h | 10097m | 5.3m/s | -39.2°C | 29.9% | 0hPa | 0V | 00:00:00 | 00:00:00 | 00:00:00 | |
| LZ4TU-5 | 2026-08-31 17:45:12 | 44.76389 | 20.65932 | 92° | 91km/h | 10069m | 5.3m/s | -38.9°C | 29.3% | 0hPa | 0V | 00:00:00 | 00:00:00 | 00:00:00 | |
| LZ4TU-5 | 2026-08-31 17:43:57 | 44.76642 | 20.63437 | 100° | 84km/h | 9660m | 7.4m/s | -35.1°C | 21.8% | 0hPa | 0V | 00:00:00 | 00:00:00 | 00:00:00 | |
| LZ4TU-5 | 2026-08-31 17:43:53 | 44.76652 | 20.63309 | 97° | 104km/h | 9639m | 3.9m/s | -34.9°C | 21.5% | 0hPa | 0V | 00:00:00 | 00:00:00 | 00:00:00 | |
| LZ4TU-5 | 2026-08-31 17:42:37 | 44.76930 | 20.60937 | 101° | 89km/h | 9224m | 4.9m/s | -31.2°C | 16.6% | 0hPa | 0V | 00:00:00 | 00:00:00 | 00:00:00 | |
| LZ4TU-5 | 2026-08-31 17:42:32 | 44.76947 | 20.60780 | 103° | 97km/h | 9201m | 4.3m/s | -31.1°C | 16.5% | 0hPa | 0V | 00:00:00 | 00:00:00 | 00:00:00 | |
| LZ4TU-5 | 2026-08-31 17:41:09 | 44.77296 | 20.58377 | 124° | 80km/h | 8779m | 4.3m/s | -28.0°C | 17.8% | 0hPa | 0V | 00:00:00 | 00:00:00 | 00:00:00 | |
| LZ4TU-5 | 2026-08-31 17:41:04 | 44.77313 | 20.58278 | 72° | 69km/h | 8744m | 6.5m/s | -27.8°C | 18.9% | 0hPa | 0V | 00:00:00 | 00:00:00 | 00:00:00 | |
| LZ4TU-5 | 2026-08-31 17:39:42 | 44.77122 | 20.56532 | 80° | 33km/h | 8329m | 3.7m/s | -25.0°C | 26.0% | 0hPa | 0V | 00:00:00 | 00:00:00 | 00:00:00 | |
| LZ4TU-5 | 2026-08-31 17:39:38 | 44.77116 | 20.56458 | 81° | 77km/h | 8307m | 5.4m/s | -24.8°C | 25.6% | 0hPa | 0V | 00:00:00 | 00:00:00 | 00:00:00 | |
| LZ4TU-5 | 2026-08-31 17:38:24 | 44.76929 | 20.54881 | 77° | 55km/h | 7915m | 6.3m/s | -21.3°C | 16.8% | 0hPa | 0V | 00:00:00 | 00:00:00 | 00:00:00 | |
| LZ4TU-5 | 2026-08-31 17:38:19 | 44.76918 | 20.54791 | 90° | 57km/h | 7881m | 6.3m/s | -21.0°C | 17.0% | 0hPa | 0V | 00:00:00 | 00:00:00 | 00:00:00 | |
| LZ4TU-5 | 2026-08-31 17:37:02 | 44.76792 | 20.53247 | 97° | 77km/h | 7433m | 4.7m/s | -18.2°C | 11.4% | 0hPa | 0V | 00:00:00 | 00:00:00 | 00:00:00 | |
| LZ4TU-5 | 2026-08-31 17:36:57 | 44.76789 | 20.53164 | 56° | 47km/h | 7401m | 5.1m/s | -18.0°C | 11.4% | 0hPa | 0V | 00:00:00 | 00:00:00 | 00:00:00 | |
| LZ4TU-5 | 2026-08-31 17:35:48 | 44.76788 | 20.51909 | 108° | 64km/h | 7002m | 4.9m/s | -14.8°C | 13.0% | 0hPa | 0V | 00:00:00 | 00:00:00 | 00:00:00 | |
| LZ4TU-5 | 2026-08-31 17:35:44 | 44.76792 | 20.51819 | 75° | 68km/h | 6981m | 5.8m/s | -14.7°C | 13.0% | 0hPa | 0V | 00:00:00 | 00:00:00 | 00:00:00 | |
| LZ4TU-5 | 2026-08-31 17:34:35 | 44.76851 | 20.50619 | 86° | 53km/h | 6570m | 6.6m/s | -12.7°C | 21.3% | 0hPa | 0V | 00:00:00 | 00:00:00 | 00:00:00 | |
| LZ4TU-5 | 2026-08-31 17:34:29 | 44.76848 | 20.50529 | 106° | 68km/h | 6530m | 6.6m/s | -12.4°C | 21.3% | 0hPa | 0V | 00:00:00 | 00:00:00 | 00:00:00 | |
| LZ4TU-5 | 2026-08-31 17:34:25 | 44.76868 | 20.50425 | 95° | 71km/h | 6511m | 5.7m/s | -12.3°C | 20.8% | 0hPa | 0V | 00:00:00 | 00:00:00 | 00:00:00 | |
| LZ4TU-5 | 2026-08-31 17:34:20 | 44.76851 | 20.50356 | 96° | 22km/h | 6482m | 5.0m/s | -12.1°C | 20.9% | 0hPa | 0V | 00:00:00 | 00:00:00 | 00:00:00 | |
| LZ4TU-5 | 2026-08-31 17:34:13 | 44.76872 | 20.50215 | 91° | 58km/h | 6438m | 6.7m/s | -11.7°C | 20.2% | 0hPa | 0V | 00:00:00 | 00:00:00 | 00:00:00 |